<?xml version="1.0" encoding="UTF-8" standalone="no" ?>
<gpx xmlns="http://www.topografix.com/GPX/1/1" xmlns:xsi="http://www.w3.org/2001/XMLSchema-instance" xsi:schemaLocation="http://www.topografix.com/GPX/1/1 http://www.topografix.com/GPX/1/1/gpx.xsd" version="1.1" creator="VisuGPX - https://www.visugpx.com">
  <metadata>
    <name>Ravin des Sagnières</name>
  </metadata>
  <trk>
    <name><![CDATA[Ravin des Sagnières_1]]></name>
    <extensions>
      <line xmlns="http://www.topografix.com/GPX/gpx_style/0/2">
        <color>0000FF</color>
        <width>4</width>
      </line>
    </extensions>
    <trkseg>
      <trkpt lat="44.41743" lon="6.73242">
        <ele>1215</ele>
        <time>2021-09-01T08:48:24Z</time>
      </trkpt>
      <trkpt lat="44.41729" lon="6.73228">
        <ele>1214.9</ele>
        <time>2021-09-01T08:48:28Z</time>
      </trkpt>
      <trkpt lat="44.41719" lon="6.73216">
        <ele>1214.8</ele>
        <time>2021-09-01T08:48:32Z</time>
      </trkpt>
      <trkpt lat="44.41707" lon="6.73201">
        <ele>1214.6</ele>
        <time>2021-09-01T08:48:36Z</time>
      </trkpt>
      <trkpt lat="44.41695" lon="6.73184">
        <ele>1214.3</ele>
        <time>2021-09-01T08:48:40Z</time>
      </trkpt>
      <trkpt lat="44.41685" lon="6.73168">
        <ele>1214</ele>
        <time>2021-09-01T08:48:44Z</time>
      </trkpt>
      <trkpt lat="44.41674" lon="6.73153">
        <ele>1213.8</ele>
        <time>2021-09-01T08:48:48Z</time>
      </trkpt>
      <trkpt lat="44.41664" lon="6.73137">
        <ele>1213.7</ele>
        <time>2021-09-01T08:48:52Z</time>
      </trkpt>
      <trkpt lat="44.41652" lon="6.73121">
        <ele>1213.6</ele>
        <time>2021-09-01T08:48:56Z</time>
      </trkpt>
      <trkpt lat="44.41642" lon="6.73106">
        <ele>1213.4</ele>
        <time>2021-09-01T08:49:00Z</time>
      </trkpt>
      <trkpt lat="44.41667" lon="6.73056">
        <ele>1213</ele>
        <time>2021-09-01T08:49:04Z</time>
      </trkpt>
      <trkpt lat="44.41696" lon="6.73016">
        <ele>1212.7</ele>
        <time>2021-09-01T08:49:08Z</time>
      </trkpt>
      <trkpt lat="44.41714" lon="6.72979">
        <ele>1212.8</ele>
        <time>2021-09-01T08:49:12Z</time>
      </trkpt>
      <trkpt lat="44.41727" lon="6.72954">
        <ele>1213.2</ele>
        <time>2021-09-01T08:49:16Z</time>
      </trkpt>
      <trkpt lat="44.4173" lon="6.72933">
        <ele>1213.7</ele>
        <time>2021-09-01T08:49:20Z</time>
      </trkpt>
      <trkpt lat="44.41727" lon="6.7291">
        <ele>1214.6</ele>
        <time>2021-09-01T08:49:24Z</time>
      </trkpt>
      <trkpt lat="44.41731" lon="6.72897">
        <ele>1215.8</ele>
        <time>2021-09-01T08:49:28Z</time>
      </trkpt>
      <trkpt lat="44.4173" lon="6.72881">
        <ele>1217.2</ele>
        <time>2021-09-01T08:49:32Z</time>
      </trkpt>
      <trkpt lat="44.41729" lon="6.72868">
        <ele>1218.4</ele>
        <time>2021-09-01T08:49:36Z</time>
      </trkpt>
      <trkpt lat="44.41727" lon="6.72854">
        <ele>1219.5</ele>
        <time>2021-09-01T08:49:40Z</time>
      </trkpt>
      <trkpt lat="44.41728" lon="6.72842">
        <ele>1220.6</ele>
        <time>2021-09-01T08:49:44Z</time>
      </trkpt>
      <trkpt lat="44.41727" lon="6.72827">
        <ele>1221.8</ele>
        <time>2021-09-01T08:49:48Z</time>
      </trkpt>
      <trkpt lat="44.41728" lon="6.72812">
        <ele>1222.8</ele>
        <time>2021-09-01T08:49:52Z</time>
      </trkpt>
      <trkpt lat="44.41727" lon="6.72798">
        <ele>1223.7</ele>
        <time>2021-09-01T08:49:56Z</time>
      </trkpt>
      <trkpt lat="44.41732" lon="6.72789">
        <ele>1224.7</ele>
        <time>2021-09-01T08:50:00Z</time>
      </trkpt>
      <trkpt lat="44.41733" lon="6.72771">
        <ele>1226</ele>
        <time>2021-09-01T08:50:04Z</time>
      </trkpt>
      <trkpt lat="44.41738" lon="6.72762">
        <ele>1227</ele>
        <time>2021-09-01T08:50:08Z</time>
      </trkpt>
      <trkpt lat="44.41734" lon="6.72744">
        <ele>1228.1</ele>
        <time>2021-09-01T08:50:12Z</time>
      </trkpt>
      <trkpt lat="44.41734" lon="6.72732">
        <ele>1229.4</ele>
        <time>2021-09-01T08:50:16Z</time>
      </trkpt>
      <trkpt lat="44.41734" lon="6.72719">
        <ele>1230.9</ele>
        <time>2021-09-01T08:50:20Z</time>
      </trkpt>
      <trkpt lat="44.41733" lon="6.7271">
        <ele>1231.8</ele>
        <time>2021-09-01T08:50:24Z</time>
      </trkpt>
      <trkpt lat="44.41734" lon="6.72698">
        <ele>1233.2</ele>
        <time>2021-09-01T08:50:28Z</time>
      </trkpt>
      <trkpt lat="44.41732" lon="6.72684">
        <ele>1234.6</ele>
        <time>2021-09-01T08:50:32Z</time>
      </trkpt>
      <trkpt lat="44.4173" lon="6.72672">
        <ele>1235.7</ele>
        <time>2021-09-01T08:50:36Z</time>
      </trkpt>
      <trkpt lat="44.41731" lon="6.72662">
        <ele>1236.8</ele>
        <time>2021-09-01T08:50:40Z</time>
      </trkpt>
      <trkpt lat="44.41731" lon="6.72647">
        <ele>1237.9</ele>
        <time>2021-09-01T08:50:44Z</time>
      </trkpt>
      <trkpt lat="44.41729" lon="6.72635">
        <ele>1238.7</ele>
        <time>2021-09-01T08:50:48Z</time>
      </trkpt>
      <trkpt lat="44.4173" lon="6.72626">
        <ele>1239.5</ele>
        <time>2021-09-01T08:50:52Z</time>
      </trkpt>
      <trkpt lat="44.4173" lon="6.72617">
        <ele>1240.2</ele>
        <time>2021-09-01T08:50:56Z</time>
      </trkpt>
      <trkpt lat="44.41731" lon="6.72604">
        <ele>1241.3</ele>
        <time>2021-09-01T08:51:00Z</time>
      </trkpt>
      <trkpt lat="44.41732" lon="6.72597">
        <ele>1242</ele>
        <time>2021-09-01T08:51:04Z</time>
      </trkpt>
      <trkpt lat="44.41735" lon="6.72589">
        <ele>1242.9</ele>
        <time>2021-09-01T08:51:08Z</time>
      </trkpt>
      <trkpt lat="44.41736" lon="6.7258">
        <ele>1243.8</ele>
        <time>2021-09-01T08:51:12Z</time>
      </trkpt>
      <trkpt lat="44.41738" lon="6.72568">
        <ele>1245</ele>
        <time>2021-09-01T08:51:16Z</time>
      </trkpt>
      <trkpt lat="44.41741" lon="6.72558">
        <ele>1246.2</ele>
        <time>2021-09-01T08:51:20Z</time>
      </trkpt>
      <trkpt lat="44.41741" lon="6.72548">
        <ele>1247</ele>
        <time>2021-09-01T08:51:24Z</time>
      </trkpt>
      <trkpt lat="44.41737" lon="6.72539">
        <ele>1247.4</ele>
        <time>2021-09-01T08:51:28Z</time>
      </trkpt>
      <trkpt lat="44.41731" lon="6.7253">
        <ele>1247.6</ele>
        <time>2021-09-01T08:51:32Z</time>
      </trkpt>
      <trkpt lat="44.41687" lon="6.72472">
        <ele>1249.6</ele>
        <time>2021-09-01T08:52:44Z</time>
      </trkpt>
      <trkpt lat="44.41684" lon="6.72463">
        <ele>1250.5</ele>
        <time>2021-09-01T08:52:48Z</time>
      </trkpt>
      <trkpt lat="44.4168" lon="6.72452">
        <ele>1251.4</ele>
        <time>2021-09-01T08:52:52Z</time>
      </trkpt>
      <trkpt lat="44.41676" lon="6.72442">
        <ele>1252.2</ele>
        <time>2021-09-01T08:52:56Z</time>
      </trkpt>
      <trkpt lat="44.4167" lon="6.72435">
        <ele>1252.2</ele>
        <time>2021-09-01T08:53:00Z</time>
      </trkpt>
      <trkpt lat="44.41664" lon="6.72428">
        <ele>1252.4</ele>
        <time>2021-09-01T08:53:04Z</time>
      </trkpt>
      <trkpt lat="44.41658" lon="6.72419">
        <ele>1253</ele>
        <time>2021-09-01T08:53:08Z</time>
      </trkpt>
      <trkpt lat="44.41652" lon="6.72409">
        <ele>1253.6</ele>
        <time>2021-09-01T08:53:12Z</time>
      </trkpt>
      <trkpt lat="44.41644" lon="6.72398">
        <ele>1254</ele>
        <time>2021-09-01T08:53:16Z</time>
      </trkpt>
      <trkpt lat="44.41636" lon="6.72388">
        <ele>1254.1</ele>
        <time>2021-09-01T08:53:20Z</time>
      </trkpt>
      <trkpt lat="44.41629" lon="6.7238">
        <ele>1254</ele>
        <time>2021-09-01T08:53:24Z</time>
      </trkpt>
      <trkpt lat="44.4162" lon="6.72367">
        <ele>1254</ele>
        <time>2021-09-01T08:53:28Z</time>
      </trkpt>
      <trkpt lat="44.4161" lon="6.72354">
        <ele>1253.7</ele>
        <time>2021-09-01T08:53:32Z</time>
      </trkpt>
      <trkpt lat="44.41601" lon="6.72343">
        <ele>1253.1</ele>
        <time>2021-09-01T08:53:36Z</time>
      </trkpt>
      <trkpt lat="44.41592" lon="6.72331">
        <ele>1252.6</ele>
        <time>2021-09-01T08:53:40Z</time>
      </trkpt>
      <trkpt lat="44.41584" lon="6.72318">
        <ele>1252.6</ele>
        <time>2021-09-01T08:53:44Z</time>
      </trkpt>
      <trkpt lat="44.41578" lon="6.72305">
        <ele>1253.6</ele>
        <time>2021-09-01T08:53:48Z</time>
      </trkpt>
      <trkpt lat="44.4157" lon="6.72291">
        <ele>1254.7</ele>
        <time>2021-09-01T08:53:52Z</time>
      </trkpt>
      <trkpt lat="44.41561" lon="6.7228">
        <ele>1255.4</ele>
        <time>2021-09-01T08:53:56Z</time>
      </trkpt>
      <trkpt lat="44.41552" lon="6.72272">
        <ele>1255.9</ele>
        <time>2021-09-01T08:54:00Z</time>
      </trkpt>
      <trkpt lat="44.41542" lon="6.72264">
        <ele>1256.3</ele>
        <time>2021-09-01T08:54:04Z</time>
      </trkpt>
      <trkpt lat="44.41532" lon="6.72255">
        <ele>1256.7</ele>
        <time>2021-09-01T08:54:08Z</time>
      </trkpt>
      <trkpt lat="44.41525" lon="6.72245">
        <ele>1257.3</ele>
        <time>2021-09-01T08:54:12Z</time>
      </trkpt>
      <trkpt lat="44.41518" lon="6.72236">
        <ele>1257.9</ele>
        <time>2021-09-01T08:54:16Z</time>
      </trkpt>
      <trkpt lat="44.41508" lon="6.72232">
        <ele>1257.8</ele>
        <time>2021-09-01T08:54:20Z</time>
      </trkpt>
      <trkpt lat="44.41499" lon="6.7223">
        <ele>1257.7</ele>
        <time>2021-09-01T08:54:24Z</time>
      </trkpt>
      <trkpt lat="44.41489" lon="6.72226">
        <ele>1258</ele>
        <time>2021-09-01T08:54:28Z</time>
      </trkpt>
      <trkpt lat="44.41479" lon="6.7222">
        <ele>1258.5</ele>
        <time>2021-09-01T08:54:32Z</time>
      </trkpt>
      <trkpt lat="44.41469" lon="6.72214">
        <ele>1259</ele>
        <time>2021-09-01T08:54:36Z</time>
      </trkpt>
      <trkpt lat="44.4146" lon="6.72204">
        <ele>1259.9</ele>
        <time>2021-09-01T08:54:40Z</time>
      </trkpt>
      <trkpt lat="44.41453" lon="6.72192">
        <ele>1260.9</ele>
        <time>2021-09-01T08:54:44Z</time>
      </trkpt>
      <trkpt lat="44.41447" lon="6.72183">
        <ele>1261.6</ele>
        <time>2021-09-01T08:54:48Z</time>
      </trkpt>
      <trkpt lat="44.41438" lon="6.7217">
        <ele>1262.7</ele>
        <time>2021-09-01T08:54:52Z</time>
      </trkpt>
      <trkpt lat="44.41432" lon="6.72158">
        <ele>1263.5</ele>
        <time>2021-09-01T08:54:56Z</time>
      </trkpt>
      <trkpt lat="44.41429" lon="6.72143">
        <ele>1264.4</ele>
        <time>2021-09-01T08:55:00Z</time>
      </trkpt>
      <trkpt lat="44.41426" lon="6.72129">
        <ele>1265.2</ele>
        <time>2021-09-01T08:55:04Z</time>
      </trkpt>
      <trkpt lat="44.41424" lon="6.72118">
        <ele>1265.9</ele>
        <time>2021-09-01T08:55:08Z</time>
      </trkpt>
      <trkpt lat="44.41422" lon="6.72109">
        <ele>1266.4</ele>
        <time>2021-09-01T08:55:12Z</time>
      </trkpt>
      <trkpt lat="44.41419" lon="6.72102">
        <ele>1266.9</ele>
        <time>2021-09-01T08:55:16Z</time>
      </trkpt>
      <trkpt lat="44.41416" lon="6.72093">
        <ele>1267.4</ele>
        <time>2021-09-01T08:55:20Z</time>
      </trkpt>
      <trkpt lat="44.41414" lon="6.72082">
        <ele>1268.2</ele>
        <time>2021-09-01T08:55:24Z</time>
      </trkpt>
      <trkpt lat="44.4141" lon="6.72073">
        <ele>1269</ele>
        <time>2021-09-01T08:55:28Z</time>
      </trkpt>
      <trkpt lat="44.41407" lon="6.72065">
        <ele>1269.7</ele>
        <time>2021-09-01T08:55:32Z</time>
      </trkpt>
      <trkpt lat="44.41408" lon="6.72055">
        <ele>1270.6</ele>
        <time>2021-09-01T08:55:36Z</time>
      </trkpt>
      <trkpt lat="44.41409" lon="6.72046">
        <ele>1271.4</ele>
        <time>2021-09-01T08:55:40Z</time>
      </trkpt>
      <trkpt lat="44.41411" lon="6.72037">
        <ele>1272.3</ele>
        <time>2021-09-01T08:55:44Z</time>
      </trkpt>
      <trkpt lat="44.41413" lon="6.72027">
        <ele>1273.3</ele>
        <time>2021-09-01T08:55:48Z</time>
      </trkpt>
      <trkpt lat="44.41415" lon="6.72018">
        <ele>1274.2</ele>
        <time>2021-09-01T08:55:52Z</time>
      </trkpt>
      <trkpt lat="44.41418" lon="6.72009">
        <ele>1275.2</ele>
        <time>2021-09-01T08:55:56Z</time>
      </trkpt>
      <trkpt lat="44.41421" lon="6.72001">
        <ele>1276.1</ele>
        <time>2021-09-01T08:56:00Z</time>
      </trkpt>
      <trkpt lat="44.41425" lon="6.71993">
        <ele>1276.7</ele>
        <time>2021-09-01T08:56:04Z</time>
      </trkpt>
      <trkpt lat="44.41429" lon="6.71985">
        <ele>1277.4</ele>
        <time>2021-09-01T08:56:08Z</time>
      </trkpt>
      <trkpt lat="44.41433" lon="6.71978">
        <ele>1278.1</ele>
        <time>2021-09-01T08:56:12Z</time>
      </trkpt>
      <trkpt lat="44.41436" lon="6.71971">
        <ele>1278.7</ele>
        <time>2021-09-01T08:56:16Z</time>
      </trkpt>
      <trkpt lat="44.4144" lon="6.71963">
        <ele>1279.4</ele>
        <time>2021-09-01T08:56:20Z</time>
      </trkpt>
      <trkpt lat="44.41444" lon="6.71955">
        <ele>1280.2</ele>
        <time>2021-09-01T08:56:24Z</time>
      </trkpt>
      <trkpt lat="44.41448" lon="6.71947">
        <ele>1281</ele>
        <time>2021-09-01T08:56:28Z</time>
      </trkpt>
      <trkpt lat="44.41453" lon="6.71939">
        <ele>1281.9</ele>
        <time>2021-09-01T08:56:32Z</time>
      </trkpt>
      <trkpt lat="44.41457" lon="6.71932">
        <ele>1282.7</ele>
        <time>2021-09-01T08:56:36Z</time>
      </trkpt>
      <trkpt lat="44.41461" lon="6.71924">
        <ele>1283.6</ele>
        <time>2021-09-01T08:56:40Z</time>
      </trkpt>
      <trkpt lat="44.41466" lon="6.71917">
        <ele>1284.5</ele>
        <time>2021-09-01T08:56:44Z</time>
      </trkpt>
      <trkpt lat="44.4147" lon="6.71909">
        <ele>1285.2</ele>
        <time>2021-09-01T08:56:48Z</time>
      </trkpt>
      <trkpt lat="44.41473" lon="6.71902">
        <ele>1285.7</ele>
        <time>2021-09-01T08:56:52Z</time>
      </trkpt>
      <trkpt lat="44.41477" lon="6.71893">
        <ele>1286.4</ele>
        <time>2021-09-01T08:56:56Z</time>
      </trkpt>
      <trkpt lat="44.41481" lon="6.71884">
        <ele>1287.1</ele>
        <time>2021-09-01T08:57:00Z</time>
      </trkpt>
      <trkpt lat="44.41484" lon="6.71874">
        <ele>1287.8</ele>
        <time>2021-09-01T08:57:04Z</time>
      </trkpt>
      <trkpt lat="44.41487" lon="6.71863">
        <ele>1288.5</ele>
        <time>2021-09-01T08:57:08Z</time>
      </trkpt>
      <trkpt lat="44.41487" lon="6.71852">
        <ele>1289</ele>
        <time>2021-09-01T08:57:12Z</time>
      </trkpt>
      <trkpt lat="44.41483" lon="6.71842">
        <ele>1289.2</ele>
        <time>2021-09-01T08:57:16Z</time>
      </trkpt>
      <trkpt lat="44.41478" lon="6.71833">
        <ele>1289.2</ele>
        <time>2021-09-01T08:57:20Z</time>
      </trkpt>
      <trkpt lat="44.41471" lon="6.71824">
        <ele>1289.3</ele>
        <time>2021-09-01T08:57:24Z</time>
      </trkpt>
      <trkpt lat="44.41461" lon="6.71811">
        <ele>1289.5</ele>
        <time>2021-09-01T08:57:28Z</time>
      </trkpt>
      <trkpt lat="44.4145" lon="6.71804">
        <ele>1289.1</ele>
        <time>2021-09-01T08:57:32Z</time>
      </trkpt>
      <trkpt lat="44.41438" lon="6.71797">
        <ele>1288.5</ele>
        <time>2021-09-01T08:57:36Z</time>
      </trkpt>
      <trkpt lat="44.41428" lon="6.7179">
        <ele>1288.1</ele>
        <time>2021-09-01T08:57:40Z</time>
      </trkpt>
      <trkpt lat="44.4142" lon="6.71785">
        <ele>1287.8</ele>
        <time>2021-09-01T08:57:44Z</time>
      </trkpt>
      <trkpt lat="44.41414" lon="6.71781">
        <ele>1287.5</ele>
        <time>2021-09-01T08:57:48Z</time>
      </trkpt>
      <trkpt lat="44.4141" lon="6.71779">
        <ele>1287.3</ele>
        <time>2021-09-01T08:57:56Z</time>
      </trkpt>
      <trkpt lat="44.41405" lon="6.71779">
        <ele>1286.9</ele>
        <time>2021-09-01T08:58:16Z</time>
      </trkpt>
      <trkpt lat="44.41402" lon="6.71777">
        <ele>1286.8</ele>
        <time>2021-09-01T08:58:20Z</time>
      </trkpt>
      <trkpt lat="44.41395" lon="6.71771">
        <ele>1286.6</ele>
        <time>2021-09-01T08:58:24Z</time>
      </trkpt>
      <trkpt lat="44.41384" lon="6.71762">
        <ele>1286.3</ele>
        <time>2021-09-01T08:58:28Z</time>
      </trkpt>
      <trkpt lat="44.41377" lon="6.71748">
        <ele>1286.8</ele>
        <time>2021-09-01T08:58:32Z</time>
      </trkpt>
      <trkpt lat="44.41385" lon="6.71734">
        <ele>1288.1</ele>
        <time>2021-09-01T08:58:36Z</time>
      </trkpt>
      <trkpt lat="44.41395" lon="6.71726">
        <ele>1289.4</ele>
        <time>2021-09-01T08:58:40Z</time>
      </trkpt>
      <trkpt lat="44.41406" lon="6.71718">
        <ele>1290.9</ele>
        <time>2021-09-01T08:58:44Z</time>
      </trkpt>
      <trkpt lat="44.41414" lon="6.71707">
        <ele>1292.3</ele>
        <time>2021-09-01T08:58:48Z</time>
      </trkpt>
      <trkpt lat="44.4142" lon="6.71697">
        <ele>1293.6</ele>
        <time>2021-09-01T08:58:52Z</time>
      </trkpt>
      <trkpt lat="44.41426" lon="6.71687">
        <ele>1294.8</ele>
        <time>2021-09-01T08:58:56Z</time>
      </trkpt>
      <trkpt lat="44.41433" lon="6.7168">
        <ele>1296.1</ele>
        <time>2021-09-01T08:59:00Z</time>
      </trkpt>
      <trkpt lat="44.4144" lon="6.71673">
        <ele>1297.4</ele>
        <time>2021-09-01T08:59:04Z</time>
      </trkpt>
      <trkpt lat="44.41447" lon="6.71666">
        <ele>1298.7</ele>
        <time>2021-09-01T08:59:08Z</time>
      </trkpt>
      <trkpt lat="44.41454" lon="6.7166">
        <ele>1299.6</ele>
        <time>2021-09-01T08:59:12Z</time>
      </trkpt>
      <trkpt lat="44.41461" lon="6.71655">
        <ele>1300.5</ele>
        <time>2021-09-01T08:59:16Z</time>
      </trkpt>
      <trkpt lat="44.41467" lon="6.7165">
        <ele>1301.3</ele>
        <time>2021-09-01T08:59:20Z</time>
      </trkpt>
      <trkpt lat="44.41472" lon="6.71645">
        <ele>1302</ele>
        <time>2021-09-01T08:59:24Z</time>
      </trkpt>
      <trkpt lat="44.41479" lon="6.71643">
        <ele>1302.8</ele>
        <time>2021-09-01T08:59:28Z</time>
      </trkpt>
      <trkpt lat="44.41486" lon="6.71641">
        <ele>1303.7</ele>
        <time>2021-09-01T08:59:32Z</time>
      </trkpt>
      <trkpt lat="44.41493" lon="6.71638">
        <ele>1304.5</ele>
        <time>2021-09-01T08:59:36Z</time>
      </trkpt>
      <trkpt lat="44.41499" lon="6.71632">
        <ele>1305.3</ele>
        <time>2021-09-01T08:59:40Z</time>
      </trkpt>
      <trkpt lat="44.41508" lon="6.71629">
        <ele>1306.2</ele>
        <time>2021-09-01T08:59:44Z</time>
      </trkpt>
      <trkpt lat="44.41517" lon="6.71624">
        <ele>1307.1</ele>
        <time>2021-09-01T08:59:48Z</time>
      </trkpt>
      <trkpt lat="44.41525" lon="6.71622">
        <ele>1307.9</ele>
        <time>2021-09-01T08:59:52Z</time>
      </trkpt>
      <trkpt lat="44.41532" lon="6.71619">
        <ele>1308.6</ele>
        <time>2021-09-01T08:59:56Z</time>
      </trkpt>
      <trkpt lat="44.41538" lon="6.71616">
        <ele>1309.3</ele>
        <time>2021-09-01T09:00:00Z</time>
      </trkpt>
      <trkpt lat="44.41544" lon="6.71611">
        <ele>1309.9</ele>
        <time>2021-09-01T09:00:04Z</time>
      </trkpt>
      <trkpt lat="44.41552" lon="6.71606">
        <ele>1310.7</ele>
        <time>2021-09-01T09:00:08Z</time>
      </trkpt>
      <trkpt lat="44.41561" lon="6.716">
        <ele>1311.7</ele>
        <time>2021-09-01T09:00:12Z</time>
      </trkpt>
      <trkpt lat="44.41568" lon="6.71594">
        <ele>1312.4</ele>
        <time>2021-09-01T09:00:16Z</time>
      </trkpt>
      <trkpt lat="44.41576" lon="6.71589">
        <ele>1313.2</ele>
        <time>2021-09-01T09:00:20Z</time>
      </trkpt>
      <trkpt lat="44.41584" lon="6.71585">
        <ele>1314</ele>
        <time>2021-09-01T09:00:24Z</time>
      </trkpt>
      <trkpt lat="44.41591" lon="6.71582">
        <ele>1314.4</ele>
        <time>2021-09-01T09:00:28Z</time>
      </trkpt>
      <trkpt lat="44.41598" lon="6.71579">
        <ele>1314.7</ele>
        <time>2021-09-01T09:00:32Z</time>
      </trkpt>
      <trkpt lat="44.41603" lon="6.71574">
        <ele>1315</ele>
        <time>2021-09-01T09:00:36Z</time>
      </trkpt>
      <trkpt lat="44.41607" lon="6.71567">
        <ele>1315.4</ele>
        <time>2021-09-01T09:00:40Z</time>
      </trkpt>
      <trkpt lat="44.4161" lon="6.71559">
        <ele>1315.8</ele>
        <time>2021-09-01T09:00:44Z</time>
      </trkpt>
      <trkpt lat="44.41612" lon="6.71548">
        <ele>1316.3</ele>
        <time>2021-09-01T09:00:48Z</time>
      </trkpt>
      <trkpt lat="44.41612" lon="6.71538">
        <ele>1316.5</ele>
        <time>2021-09-01T09:00:52Z</time>
      </trkpt>
      <trkpt lat="44.4161" lon="6.71528">
        <ele>1316.5</ele>
        <time>2021-09-01T09:00:56Z</time>
      </trkpt>
      <trkpt lat="44.41609" lon="6.71518">
        <ele>1316.6</ele>
        <time>2021-09-01T09:01:00Z</time>
      </trkpt>
      <trkpt lat="44.41607" lon="6.7151">
        <ele>1316.4</ele>
        <time>2021-09-01T09:01:04Z</time>
      </trkpt>
      <trkpt lat="44.41607" lon="6.71501">
        <ele>1316.5</ele>
        <time>2021-09-01T09:01:08Z</time>
      </trkpt>
      <trkpt lat="44.41607" lon="6.71491">
        <ele>1318</ele>
        <time>2021-09-01T09:01:12Z</time>
      </trkpt>
      <trkpt lat="44.41608" lon="6.71483">
        <ele>1319.4</ele>
        <time>2021-09-01T09:01:16Z</time>
      </trkpt>
      <trkpt lat="44.41608" lon="6.71474">
        <ele>1320.8</ele>
        <time>2021-09-01T09:01:20Z</time>
      </trkpt>
      <trkpt lat="44.41608" lon="6.71467">
        <ele>1322</ele>
        <time>2021-09-01T09:01:24Z</time>
      </trkpt>
      <trkpt lat="44.41605" lon="6.71459">
        <ele>1322.6</ele>
        <time>2021-09-01T09:01:28Z</time>
      </trkpt>
      <trkpt lat="44.41605" lon="6.71452">
        <ele>1323.7</ele>
        <time>2021-09-01T09:01:32Z</time>
      </trkpt>
      <trkpt lat="44.41602" lon="6.71447">
        <ele>1323.8</ele>
        <time>2021-09-01T09:01:36Z</time>
      </trkpt>
      <trkpt lat="44.416" lon="6.7144">
        <ele>1324.4</ele>
        <time>2021-09-01T09:01:40Z</time>
      </trkpt>
      <trkpt lat="44.41598" lon="6.71433">
        <ele>1325</ele>
        <time>2021-09-01T09:01:44Z</time>
      </trkpt>
      <trkpt lat="44.41596" lon="6.71425">
        <ele>1325.8</ele>
        <time>2021-09-01T09:01:48Z</time>
      </trkpt>
      <trkpt lat="44.41595" lon="6.71417">
        <ele>1326.7</ele>
        <time>2021-09-01T09:01:52Z</time>
      </trkpt>
      <trkpt lat="44.41594" lon="6.71412">
        <ele>1327.5</ele>
        <time>2021-09-01T09:01:56Z</time>
      </trkpt>
      <trkpt lat="44.41593" lon="6.71404">
        <ele>1328.9</ele>
        <time>2021-09-01T09:02:00Z</time>
      </trkpt>
      <trkpt lat="44.4159" lon="6.71396">
        <ele>1329.8</ele>
        <time>2021-09-01T09:02:04Z</time>
      </trkpt>
      <trkpt lat="44.41592" lon="6.71387">
        <ele>1332.1</ele>
        <time>2021-09-01T09:02:08Z</time>
      </trkpt>
      <trkpt lat="44.41598" lon="6.71386">
        <ele>1333.8</ele>
        <time>2021-09-01T09:02:12Z</time>
      </trkpt>
      <trkpt lat="44.41602" lon="6.71391">
        <ele>1333.7</ele>
        <time>2021-09-01T09:02:16Z</time>
      </trkpt>
      <trkpt lat="44.41607" lon="6.71395">
        <ele>1334.1</ele>
        <time>2021-09-01T09:02:20Z</time>
      </trkpt>
      <trkpt lat="44.41611" lon="6.71398">
        <ele>1334.4</ele>
        <time>2021-09-01T09:02:24Z</time>
      </trkpt>
      <trkpt lat="44.41615" lon="6.714">
        <ele>1335</ele>
        <time>2021-09-01T09:02:28Z</time>
      </trkpt>
      <trkpt lat="44.41619" lon="6.71402">
        <ele>1335.6</ele>
        <time>2021-09-01T09:02:32Z</time>
      </trkpt>
      <trkpt lat="44.41622" lon="6.71404">
        <ele>1335.9</ele>
        <time>2021-09-01T09:02:36Z</time>
      </trkpt>
      <trkpt lat="44.41626" lon="6.71406">
        <ele>1336.4</ele>
        <time>2021-09-01T09:02:40Z</time>
      </trkpt>
      <trkpt lat="44.4163" lon="6.71407">
        <ele>1337.2</ele>
        <time>2021-09-01T09:02:44Z</time>
      </trkpt>
      <trkpt lat="44.41638" lon="6.7141">
        <ele>1338.5</ele>
        <time>2021-09-01T09:02:56Z</time>
      </trkpt>
      <trkpt lat="44.41644" lon="6.71413">
        <ele>1339.3</ele>
        <time>2021-09-01T09:03:00Z</time>
      </trkpt>
      <trkpt lat="44.4165" lon="6.71416">
        <ele>1340.1</ele>
        <time>2021-09-01T09:03:04Z</time>
      </trkpt>
      <trkpt lat="44.41656" lon="6.71418">
        <ele>1341.2</ele>
        <time>2021-09-01T09:03:08Z</time>
      </trkpt>
      <trkpt lat="44.41663" lon="6.71419">
        <ele>1342.7</ele>
        <time>2021-09-01T09:03:12Z</time>
      </trkpt>
      <trkpt lat="44.41668" lon="6.71421">
        <ele>1343.4</ele>
        <time>2021-09-01T09:03:16Z</time>
      </trkpt>
      <trkpt lat="44.41673" lon="6.71421">
        <ele>1344.2</ele>
        <time>2021-09-01T09:03:20Z</time>
      </trkpt>
      <trkpt lat="44.41682" lon="6.71422">
        <ele>1345.4</ele>
        <time>2021-09-01T09:03:24Z</time>
      </trkpt>
      <trkpt lat="44.41691" lon="6.71422">
        <ele>1346.8</ele>
        <time>2021-09-01T09:03:28Z</time>
      </trkpt>
      <trkpt lat="44.41698" lon="6.71422">
        <ele>1347.9</ele>
        <time>2021-09-01T09:03:32Z</time>
      </trkpt>
      <trkpt lat="44.41706" lon="6.7142">
        <ele>1349.5</ele>
        <time>2021-09-01T09:03:36Z</time>
      </trkpt>
      <trkpt lat="44.41714" lon="6.71417">
        <ele>1351.3</ele>
        <time>2021-09-01T09:03:40Z</time>
      </trkpt>
      <trkpt lat="44.4172" lon="6.71415">
        <ele>1352.6</ele>
        <time>2021-09-01T09:03:44Z</time>
      </trkpt>
      <trkpt lat="44.41727" lon="6.71412">
        <ele>1354.2</ele>
        <time>2021-09-01T09:03:48Z</time>
      </trkpt>
      <trkpt lat="44.41736" lon="6.7141">
        <ele>1355.9</ele>
        <time>2021-09-01T09:03:52Z</time>
      </trkpt>
      <trkpt lat="44.41744" lon="6.71408">
        <ele>1357.4</ele>
        <time>2021-09-01T09:03:56Z</time>
      </trkpt>
      <trkpt lat="44.4175" lon="6.71404">
        <ele>1359</ele>
        <time>2021-09-01T09:04:00Z</time>
      </trkpt>
      <trkpt lat="44.41755" lon="6.714">
        <ele>1359.6</ele>
        <time>2021-09-01T09:04:04Z</time>
      </trkpt>
      <trkpt lat="44.4176" lon="6.71395">
        <ele>1360.4</ele>
        <time>2021-09-01T09:04:08Z</time>
      </trkpt>
      <trkpt lat="44.41766" lon="6.71392">
        <ele>1360.8</ele>
        <time>2021-09-01T09:04:12Z</time>
      </trkpt>
      <trkpt lat="44.41772" lon="6.71391">
        <ele>1361</ele>
        <time>2021-09-01T09:04:16Z</time>
      </trkpt>
      <trkpt lat="44.41778" lon="6.71389">
        <ele>1361.3</ele>
        <time>2021-09-01T09:04:20Z</time>
      </trkpt>
      <trkpt lat="44.41783" lon="6.71388">
        <ele>1361.5</ele>
        <time>2021-09-01T09:04:24Z</time>
      </trkpt>
      <trkpt lat="44.41789" lon="6.71389">
        <ele>1361.3</ele>
        <time>2021-09-01T09:04:28Z</time>
      </trkpt>
      <trkpt lat="44.41796" lon="6.71385">
        <ele>1362</ele>
        <time>2021-09-01T09:04:32Z</time>
      </trkpt>
      <trkpt lat="44.41797" lon="6.71378">
        <ele>1363.3</ele>
        <time>2021-09-01T09:04:36Z</time>
      </trkpt>
      <trkpt lat="44.41793" lon="6.71376">
        <ele>1363.6</ele>
        <time>2021-09-01T09:04:40Z</time>
      </trkpt>
      <trkpt lat="44.41787" lon="6.71375">
        <ele>1363.7</ele>
        <time>2021-09-01T09:04:44Z</time>
      </trkpt>
      <trkpt lat="44.41782" lon="6.71373">
        <ele>1364</ele>
        <time>2021-09-01T09:04:48Z</time>
      </trkpt>
      <trkpt lat="44.41777" lon="6.71371">
        <ele>1364.3</ele>
        <time>2021-09-01T09:04:52Z</time>
      </trkpt>
      <trkpt lat="44.41772" lon="6.7137">
        <ele>1364.5</ele>
        <time>2021-09-01T09:04:56Z</time>
      </trkpt>
      <trkpt lat="44.41766" lon="6.71368">
        <ele>1364.7</ele>
        <time>2021-09-01T09:05:00Z</time>
      </trkpt>
      <trkpt lat="44.41759" lon="6.71366">
        <ele>1365</ele>
        <time>2021-09-01T09:05:04Z</time>
      </trkpt>
      <trkpt lat="44.41749" lon="6.71361">
        <ele>1365.6</ele>
        <time>2021-09-01T09:05:08Z</time>
      </trkpt>
      <trkpt lat="44.41742" lon="6.71357">
        <ele>1365.3</ele>
        <time>2021-09-01T09:05:12Z</time>
      </trkpt>
      <trkpt lat="44.41734" lon="6.71353">
        <ele>1365</ele>
        <time>2021-09-01T09:05:16Z</time>
      </trkpt>
      <trkpt lat="44.41724" lon="6.71351">
        <ele>1364.2</ele>
        <time>2021-09-01T09:05:20Z</time>
      </trkpt>
      <trkpt lat="44.41714" lon="6.7135">
        <ele>1363.2</ele>
        <time>2021-09-01T09:05:24Z</time>
      </trkpt>
      <trkpt lat="44.41703" lon="6.71347">
        <ele>1362.4</ele>
        <time>2021-09-01T09:05:28Z</time>
      </trkpt>
      <trkpt lat="44.41693" lon="6.71341">
        <ele>1362.4</ele>
        <time>2021-09-01T09:05:32Z</time>
      </trkpt>
      <trkpt lat="44.41684" lon="6.71333">
        <ele>1362.9</ele>
        <time>2021-09-01T09:05:36Z</time>
      </trkpt>
      <trkpt lat="44.41677" lon="6.71325">
        <ele>1363.9</ele>
        <time>2021-09-01T09:05:40Z</time>
      </trkpt>
      <trkpt lat="44.41671" lon="6.71314">
        <ele>1365.6</ele>
        <time>2021-09-01T09:05:44Z</time>
      </trkpt>
      <trkpt lat="44.41671" lon="6.71304">
        <ele>1367.7</ele>
        <time>2021-09-01T09:05:48Z</time>
      </trkpt>
      <trkpt lat="44.41672" lon="6.71296">
        <ele>1369.5</ele>
        <time>2021-09-01T09:05:52Z</time>
      </trkpt>
      <trkpt lat="44.41679" lon="6.71291">
        <ele>1371.2</ele>
        <time>2021-09-01T09:05:56Z</time>
      </trkpt>
      <trkpt lat="44.41684" lon="6.7129">
        <ele>1371.8</ele>
        <time>2021-09-01T09:06:00Z</time>
      </trkpt>
      <trkpt lat="44.41691" lon="6.71289">
        <ele>1372.6</ele>
        <time>2021-09-01T09:06:04Z</time>
      </trkpt>
      <trkpt lat="44.41696" lon="6.71285">
        <ele>1373.8</ele>
        <time>2021-09-01T09:06:08Z</time>
      </trkpt>
      <trkpt lat="44.41702" lon="6.71279">
        <ele>1375.4</ele>
        <time>2021-09-01T09:06:12Z</time>
      </trkpt>
      <trkpt lat="44.41706" lon="6.71273">
        <ele>1376.9</ele>
        <time>2021-09-01T09:06:16Z</time>
      </trkpt>
      <trkpt lat="44.4171" lon="6.71266">
        <ele>1378.5</ele>
        <time>2021-09-01T09:06:20Z</time>
      </trkpt>
      <trkpt lat="44.41715" lon="6.71258">
        <ele>1380.4</ele>
        <time>2021-09-01T09:06:24Z</time>
      </trkpt>
      <trkpt lat="44.41719" lon="6.71252">
        <ele>1381.8</ele>
        <time>2021-09-01T09:06:28Z</time>
      </trkpt>
      <trkpt lat="44.41721" lon="6.71245">
        <ele>1383.6</ele>
        <time>2021-09-01T09:06:32Z</time>
      </trkpt>
      <trkpt lat="44.41719" lon="6.71237">
        <ele>1385.6</ele>
        <time>2021-09-01T09:06:36Z</time>
      </trkpt>
      <trkpt lat="44.41713" lon="6.71239">
        <ele>1384.7</ele>
        <time>2021-09-01T09:06:40Z</time>
      </trkpt>
      <trkpt lat="44.41709" lon="6.71244">
        <ele>1383.1</ele>
        <time>2021-09-01T09:06:44Z</time>
      </trkpt>
      <trkpt lat="44.41704" lon="6.71249">
        <ele>1381.5</ele>
        <time>2021-09-01T09:06:48Z</time>
      </trkpt>
      <trkpt lat="44.41698" lon="6.71252">
        <ele>1380.5</ele>
        <time>2021-09-01T09:06:52Z</time>
      </trkpt>
      <trkpt lat="44.41692" lon="6.71254">
        <ele>1379.7</ele>
        <time>2021-09-01T09:06:56Z</time>
      </trkpt>
      <trkpt lat="44.41685" lon="6.71253">
        <ele>1379.5</ele>
        <time>2021-09-01T09:07:00Z</time>
      </trkpt>
      <trkpt lat="44.41679" lon="6.71249">
        <ele>1380</ele>
        <time>2021-09-01T09:07:04Z</time>
      </trkpt>
      <trkpt lat="44.41674" lon="6.71244">
        <ele>1381</ele>
        <time>2021-09-01T09:07:08Z</time>
      </trkpt>
      <trkpt lat="44.41669" lon="6.71237">
        <ele>1382.6</ele>
        <time>2021-09-01T09:07:12Z</time>
      </trkpt>
      <trkpt lat="44.41666" lon="6.71229">
        <ele>1384.4</ele>
        <time>2021-09-01T09:07:16Z</time>
      </trkpt>
      <trkpt lat="44.41663" lon="6.71221">
        <ele>1385.8</ele>
        <time>2021-09-01T09:07:20Z</time>
      </trkpt>
      <trkpt lat="44.41661" lon="6.71213">
        <ele>1387.5</ele>
        <time>2021-09-01T09:07:24Z</time>
      </trkpt>
      <trkpt lat="44.41658" lon="6.71207">
        <ele>1388.4</ele>
        <time>2021-09-01T09:07:28Z</time>
      </trkpt>
      <trkpt lat="44.41656" lon="6.712">
        <ele>1389.8</ele>
        <time>2021-09-01T09:07:32Z</time>
      </trkpt>
      <trkpt lat="44.41653" lon="6.71193">
        <ele>1390.9</ele>
        <time>2021-09-01T09:07:36Z</time>
      </trkpt>
      <trkpt lat="44.4165" lon="6.71186">
        <ele>1392.1</ele>
        <time>2021-09-01T09:07:40Z</time>
      </trkpt>
      <trkpt lat="44.41648" lon="6.71178">
        <ele>1393.8</ele>
        <time>2021-09-01T09:07:44Z</time>
      </trkpt>
      <trkpt lat="44.41647" lon="6.7117">
        <ele>1395.6</ele>
        <time>2021-09-01T09:07:48Z</time>
      </trkpt>
      <trkpt lat="44.41647" lon="6.71162">
        <ele>1397.5</ele>
        <time>2021-09-01T09:07:52Z</time>
      </trkpt>
      <trkpt lat="44.41646" lon="6.71156">
        <ele>1398.5</ele>
        <time>2021-09-01T09:07:56Z</time>
      </trkpt>
      <trkpt lat="44.41645" lon="6.71149">
        <ele>1399.8</ele>
        <time>2021-09-01T09:08:00Z</time>
      </trkpt>
      <trkpt lat="44.41643" lon="6.71141">
        <ele>1401</ele>
        <time>2021-09-01T09:08:04Z</time>
      </trkpt>
      <trkpt lat="44.41641" lon="6.71133">
        <ele>1402.3</ele>
        <time>2021-09-01T09:08:08Z</time>
      </trkpt>
      <trkpt lat="44.41639" lon="6.71125">
        <ele>1403.5</ele>
        <time>2021-09-01T09:08:12Z</time>
      </trkpt>
      <trkpt lat="44.41636" lon="6.7112">
        <ele>1403.9</ele>
        <time>2021-09-01T09:08:16Z</time>
      </trkpt>
      <trkpt lat="44.41633" lon="6.71112">
        <ele>1405</ele>
        <time>2021-09-01T09:08:20Z</time>
      </trkpt>
      <trkpt lat="44.41629" lon="6.71104">
        <ele>1405.9</ele>
        <time>2021-09-01T09:08:24Z</time>
      </trkpt>
      <trkpt lat="44.41627" lon="6.71095">
        <ele>1407.4</ele>
        <time>2021-09-01T09:08:28Z</time>
      </trkpt>
      <trkpt lat="44.41626" lon="6.71086">
        <ele>1409.1</ele>
        <time>2021-09-01T09:08:32Z</time>
      </trkpt>
      <trkpt lat="44.41625" lon="6.71078">
        <ele>1410.8</ele>
        <time>2021-09-01T09:08:36Z</time>
      </trkpt>
      <trkpt lat="44.41624" lon="6.7107">
        <ele>1412.6</ele>
        <time>2021-09-01T09:08:40Z</time>
      </trkpt>
      <trkpt lat="44.4162" lon="6.71063">
        <ele>1413.4</ele>
        <time>2021-09-01T09:08:44Z</time>
      </trkpt>
      <trkpt lat="44.41617" lon="6.71057">
        <ele>1414.2</ele>
        <time>2021-09-01T09:08:48Z</time>
      </trkpt>
      <trkpt lat="44.41614" lon="6.7105">
        <ele>1415.2</ele>
        <time>2021-09-01T09:08:52Z</time>
      </trkpt>
      <trkpt lat="44.41611" lon="6.71043">
        <ele>1416.2</ele>
        <time>2021-09-01T09:08:56Z</time>
      </trkpt>
      <trkpt lat="44.41607" lon="6.71037">
        <ele>1416.6</ele>
        <time>2021-09-01T09:09:00Z</time>
      </trkpt>
      <trkpt lat="44.41604" lon="6.71031">
        <ele>1417.3</ele>
        <time>2021-09-01T09:09:04Z</time>
      </trkpt>
      <trkpt lat="44.41601" lon="6.71027">
        <ele>1417.5</ele>
        <time>2021-09-01T09:09:08Z</time>
      </trkpt>
      <trkpt lat="44.416" lon="6.71019">
        <ele>1419.1</ele>
        <time>2021-09-01T09:09:12Z</time>
      </trkpt>
      <trkpt lat="44.416" lon="6.71012">
        <ele>1420.7</ele>
        <time>2021-09-01T09:09:16Z</time>
      </trkpt>
      <trkpt lat="44.41603" lon="6.71009">
        <ele>1422.1</ele>
        <time>2021-09-01T09:09:20Z</time>
      </trkpt>
      <trkpt lat="44.41607" lon="6.71012">
        <ele>1422.5</ele>
        <time>2021-09-01T09:09:24Z</time>
      </trkpt>
      <trkpt lat="44.41612" lon="6.71016">
        <ele>1422.8</ele>
        <time>2021-09-01T09:09:28Z</time>
      </trkpt>
      <trkpt lat="44.41616" lon="6.7102">
        <ele>1422.8</ele>
        <time>2021-09-01T09:09:32Z</time>
      </trkpt>
      <trkpt lat="44.41619" lon="6.71025">
        <ele>1422.4</ele>
        <time>2021-09-01T09:09:36Z</time>
      </trkpt>
      <trkpt lat="44.41623" lon="6.71029">
        <ele>1422.4</ele>
        <time>2021-09-01T09:09:40Z</time>
      </trkpt>
      <trkpt lat="44.41628" lon="6.71032">
        <ele>1422.9</ele>
        <time>2021-09-01T09:09:44Z</time>
      </trkpt>
      <trkpt lat="44.41631" lon="6.71035">
        <ele>1422.8</ele>
        <time>2021-09-01T09:09:48Z</time>
      </trkpt>
      <trkpt lat="44.41632" lon="6.71036">
        <ele>1422.8</ele>
        <time>2021-09-01T09:09:52Z</time>
      </trkpt>
      <trkpt lat="44.41637" lon="6.71037">
        <ele>1423.7</ele>
        <time>2021-09-01T09:09:56Z</time>
      </trkpt>
      <trkpt lat="44.4164" lon="6.71038">
        <ele>1424.2</ele>
        <time>2021-09-01T09:10:00Z</time>
      </trkpt>
      <trkpt lat="44.41644" lon="6.71039">
        <ele>1424.9</ele>
        <time>2021-09-01T09:10:04Z</time>
      </trkpt>
      <trkpt lat="44.41648" lon="6.7104">
        <ele>1425.6</ele>
        <time>2021-09-01T09:10:08Z</time>
      </trkpt>
      <trkpt lat="44.41653" lon="6.71039">
        <ele>1427</ele>
        <time>2021-09-01T09:10:12Z</time>
      </trkpt>
      <trkpt lat="44.41658" lon="6.7104">
        <ele>1427.9</ele>
        <time>2021-09-01T09:10:16Z</time>
      </trkpt>
      <trkpt lat="44.41666" lon="6.7104">
        <ele>1429.8</ele>
        <time>2021-09-01T09:10:20Z</time>
      </trkpt>
      <trkpt lat="44.41672" lon="6.71038">
        <ele>1431</ele>
        <time>2021-09-01T09:10:24Z</time>
      </trkpt>
      <trkpt lat="44.41675" lon="6.71037">
        <ele>1431.5</ele>
        <time>2021-09-01T09:10:28Z</time>
      </trkpt>
      <trkpt lat="44.4168" lon="6.71036">
        <ele>1432.2</ele>
        <time>2021-09-01T09:10:32Z</time>
      </trkpt>
      <trkpt lat="44.41685" lon="6.71036">
        <ele>1432.6</ele>
        <time>2021-09-01T09:10:36Z</time>
      </trkpt>
      <trkpt lat="44.41692" lon="6.71033">
        <ele>1434</ele>
        <time>2021-09-01T09:10:40Z</time>
      </trkpt>
      <trkpt lat="44.41698" lon="6.71032">
        <ele>1434.7</ele>
        <time>2021-09-01T09:10:44Z</time>
      </trkpt>
      <trkpt lat="44.41706" lon="6.71031">
        <ele>1435.6</ele>
        <time>2021-09-01T09:10:48Z</time>
      </trkpt>
      <trkpt lat="44.41713" lon="6.71029">
        <ele>1436.7</ele>
        <time>2021-09-01T09:10:52Z</time>
      </trkpt>
      <trkpt lat="44.41723" lon="6.71025">
        <ele>1438.6</ele>
        <time>2021-09-01T09:10:56Z</time>
      </trkpt>
      <trkpt lat="44.41729" lon="6.71022">
        <ele>1439.8</ele>
        <time>2021-09-01T09:11:00Z</time>
      </trkpt>
      <trkpt lat="44.4174" lon="6.71019">
        <ele>1441.4</ele>
        <time>2021-09-01T09:11:04Z</time>
      </trkpt>
      <trkpt lat="44.41747" lon="6.71018">
        <ele>1442.2</ele>
        <time>2021-09-01T09:11:08Z</time>
      </trkpt>
      <trkpt lat="44.41753" lon="6.71018">
        <ele>1442.6</ele>
        <time>2021-09-01T09:11:12Z</time>
      </trkpt>
      <trkpt lat="44.41759" lon="6.71017">
        <ele>1443.1</ele>
        <time>2021-09-01T09:11:16Z</time>
      </trkpt>
      <trkpt lat="44.41764" lon="6.71016">
        <ele>1443.6</ele>
        <time>2021-09-01T09:11:20Z</time>
      </trkpt>
      <trkpt lat="44.41771" lon="6.71014">
        <ele>1444.4</ele>
        <time>2021-09-01T09:11:24Z</time>
      </trkpt>
      <trkpt lat="44.41779" lon="6.71015">
        <ele>1444.5</ele>
        <time>2021-09-01T09:11:28Z</time>
      </trkpt>
      <trkpt lat="44.41787" lon="6.71012">
        <ele>1445.7</ele>
        <time>2021-09-01T09:11:32Z</time>
      </trkpt>
      <trkpt lat="44.41795" lon="6.7101">
        <ele>1446.6</ele>
        <time>2021-09-01T09:11:36Z</time>
      </trkpt>
      <trkpt lat="44.41806" lon="6.71008">
        <ele>1447.6</ele>
        <time>2021-09-01T09:11:40Z</time>
      </trkpt>
      <trkpt lat="44.41816" lon="6.71005">
        <ele>1448.9</ele>
        <time>2021-09-01T09:11:44Z</time>
      </trkpt>
      <trkpt lat="44.41821" lon="6.71002">
        <ele>1449.9</ele>
        <time>2021-09-01T09:11:48Z</time>
      </trkpt>
      <trkpt lat="44.41826" lon="6.70999">
        <ele>1450.9</ele>
        <time>2021-09-01T09:11:52Z</time>
      </trkpt>
      <trkpt lat="44.41832" lon="6.70996">
        <ele>1451.8</ele>
        <time>2021-09-01T09:11:56Z</time>
      </trkpt>
      <trkpt lat="44.41837" lon="6.70993">
        <ele>1452.4</ele>
        <time>2021-09-01T09:12:00Z</time>
      </trkpt>
      <trkpt lat="44.41845" lon="6.70992">
        <ele>1452.6</ele>
        <time>2021-09-01T09:12:04Z</time>
      </trkpt>
      <trkpt lat="44.4185" lon="6.7099">
        <ele>1453</ele>
        <time>2021-09-01T09:12:08Z</time>
      </trkpt>
      <trkpt lat="44.41856" lon="6.70989">
        <ele>1453.2</ele>
        <time>2021-09-01T09:12:12Z</time>
      </trkpt>
      <trkpt lat="44.41862" lon="6.70988">
        <ele>1453.4</ele>
        <time>2021-09-01T09:12:16Z</time>
      </trkpt>
      <trkpt lat="44.41868" lon="6.70985">
        <ele>1454.1</ele>
        <time>2021-09-01T09:12:20Z</time>
      </trkpt>
      <trkpt lat="44.41874" lon="6.70982">
        <ele>1454.8</ele>
        <time>2021-09-01T09:12:24Z</time>
      </trkpt>
      <trkpt lat="44.41878" lon="6.70977">
        <ele>1456</ele>
        <time>2021-09-01T09:12:28Z</time>
      </trkpt>
      <trkpt lat="44.41883" lon="6.70972">
        <ele>1457.3</ele>
        <time>2021-09-01T09:12:32Z</time>
      </trkpt>
      <trkpt lat="44.41889" lon="6.70968">
        <ele>1458.4</ele>
        <time>2021-09-01T09:12:36Z</time>
      </trkpt>
      <trkpt lat="44.41893" lon="6.70964">
        <ele>1459.5</ele>
        <time>2021-09-01T09:12:40Z</time>
      </trkpt>
      <trkpt lat="44.41897" lon="6.70961">
        <ele>1460.3</ele>
        <time>2021-09-01T09:12:44Z</time>
      </trkpt>
      <trkpt lat="44.41902" lon="6.70959">
        <ele>1461</ele>
        <time>2021-09-01T09:12:48Z</time>
      </trkpt>
      <trkpt lat="44.41906" lon="6.70954">
        <ele>1462.4</ele>
        <time>2021-09-01T09:12:52Z</time>
      </trkpt>
      <trkpt lat="44.41907" lon="6.70949">
        <ele>1463.8</ele>
        <time>2021-09-01T09:12:56Z</time>
      </trkpt>
      <trkpt lat="44.41906" lon="6.70942">
        <ele>1465.6</ele>
        <time>2021-09-01T09:13:00Z</time>
      </trkpt>
      <trkpt lat="44.41903" lon="6.70943">
        <ele>1465.2</ele>
        <time>2021-09-01T09:13:04Z</time>
      </trkpt>
      <trkpt lat="44.41896" lon="6.70939">
        <ele>1466</ele>
        <time>2021-09-01T09:13:08Z</time>
      </trkpt>
      <trkpt lat="44.4189" lon="6.70938">
        <ele>1466</ele>
        <time>2021-09-01T09:13:12Z</time>
      </trkpt>
      <trkpt lat="44.41886" lon="6.70936">
        <ele>1466.3</ele>
        <time>2021-09-01T09:13:16Z</time>
      </trkpt>
      <trkpt lat="44.41882" lon="6.70934">
        <ele>1466.7</ele>
        <time>2021-09-01T09:13:20Z</time>
      </trkpt>
      <trkpt lat="44.41877" lon="6.7093">
        <ele>1467.4</ele>
        <time>2021-09-01T09:13:24Z</time>
      </trkpt>
      <trkpt lat="44.41867" lon="6.70923">
        <ele>1468.5</ele>
        <time>2021-09-01T09:13:28Z</time>
      </trkpt>
      <trkpt lat="44.41858" lon="6.70915">
        <ele>1470</ele>
        <time>2021-09-01T09:13:32Z</time>
      </trkpt>
      <trkpt lat="44.4185" lon="6.70912">
        <ele>1470.5</ele>
        <time>2021-09-01T09:13:36Z</time>
      </trkpt>
      <trkpt lat="44.41839" lon="6.70907">
        <ele>1471.5</ele>
        <time>2021-09-01T09:13:40Z</time>
      </trkpt>
      <trkpt lat="44.41825" lon="6.70904">
        <ele>1472.5</ele>
        <time>2021-09-01T09:13:44Z</time>
      </trkpt>
      <trkpt lat="44.41811" lon="6.70906">
        <ele>1472.5</ele>
        <time>2021-09-01T09:13:48Z</time>
      </trkpt>
      <trkpt lat="44.418" lon="6.7091">
        <ele>1471.9</ele>
        <time>2021-09-01T09:13:52Z</time>
      </trkpt>
      <trkpt lat="44.41792" lon="6.70913">
        <ele>1471.5</ele>
        <time>2021-09-01T09:13:56Z</time>
      </trkpt>
      <trkpt lat="44.41785" lon="6.70915">
        <ele>1471.3</ele>
        <time>2021-09-01T09:14:00Z</time>
      </trkpt>
      <trkpt lat="44.41777" lon="6.70916">
        <ele>1471.6</ele>
        <time>2021-09-01T09:14:04Z</time>
      </trkpt>
      <trkpt lat="44.41772" lon="6.70917">
        <ele>1471.6</ele>
        <time>2021-09-01T09:14:08Z</time>
      </trkpt>
      <trkpt lat="44.41766" lon="6.70919">
        <ele>1471.4</ele>
        <time>2021-09-01T09:14:12Z</time>
      </trkpt>
      <trkpt lat="44.41758" lon="6.70916">
        <ele>1472.7</ele>
        <time>2021-09-01T09:14:16Z</time>
      </trkpt>
      <trkpt lat="44.41756" lon="6.70912">
        <ele>1473.7</ele>
        <time>2021-09-01T09:14:20Z</time>
      </trkpt>
      <trkpt lat="44.41757" lon="6.70905">
        <ele>1475.3</ele>
        <time>2021-09-01T09:14:24Z</time>
      </trkpt>
      <trkpt lat="44.41761" lon="6.70902">
        <ele>1475.9</ele>
        <time>2021-09-01T09:14:28Z</time>
      </trkpt>
      <trkpt lat="44.41767" lon="6.709">
        <ele>1476.1</ele>
        <time>2021-09-01T09:14:32Z</time>
      </trkpt>
      <trkpt lat="44.41771" lon="6.70894">
        <ele>1477.5</ele>
        <time>2021-09-01T09:14:36Z</time>
      </trkpt>
      <trkpt lat="44.41776" lon="6.70886">
        <ele>1479.4</ele>
        <time>2021-09-01T09:14:40Z</time>
      </trkpt>
      <trkpt lat="44.41778" lon="6.70878">
        <ele>1481.4</ele>
        <time>2021-09-01T09:14:44Z</time>
      </trkpt>
      <trkpt lat="44.41779" lon="6.70871">
        <ele>1483.2</ele>
        <time>2021-09-01T09:14:48Z</time>
      </trkpt>
      <trkpt lat="44.41781" lon="6.70864">
        <ele>1485</ele>
        <time>2021-09-01T09:14:52Z</time>
      </trkpt>
      <trkpt lat="44.41783" lon="6.70858">
        <ele>1486.6</ele>
        <time>2021-09-01T09:14:56Z</time>
      </trkpt>
      <trkpt lat="44.41788" lon="6.70851">
        <ele>1488.6</ele>
        <time>2021-09-01T09:15:00Z</time>
      </trkpt>
      <trkpt lat="44.41792" lon="6.70846">
        <ele>1490</ele>
        <time>2021-09-01T09:15:04Z</time>
      </trkpt>
      <trkpt lat="44.41795" lon="6.7084">
        <ele>1491.8</ele>
        <time>2021-09-01T09:15:08Z</time>
      </trkpt>
      <trkpt lat="44.418" lon="6.70836">
        <ele>1493</ele>
        <time>2021-09-01T09:15:12Z</time>
      </trkpt>
      <trkpt lat="44.41807" lon="6.70832">
        <ele>1494.4</ele>
        <time>2021-09-01T09:15:16Z</time>
      </trkpt>
      <trkpt lat="44.41811" lon="6.70831">
        <ele>1494.8</ele>
        <time>2021-09-01T09:15:20Z</time>
      </trkpt>
      <trkpt lat="44.41816" lon="6.70827">
        <ele>1495.9</ele>
        <time>2021-09-01T09:15:24Z</time>
      </trkpt>
      <trkpt lat="44.41825" lon="6.70828">
        <ele>1496.1</ele>
        <time>2021-09-01T09:15:28Z</time>
      </trkpt>
      <trkpt lat="44.41831" lon="6.70828">
        <ele>1496.3</ele>
        <time>2021-09-01T09:15:32Z</time>
      </trkpt>
      <trkpt lat="44.41838" lon="6.70827">
        <ele>1497</ele>
        <time>2021-09-01T09:15:36Z</time>
      </trkpt>
      <trkpt lat="44.41847" lon="6.70827">
        <ele>1497.5</ele>
        <time>2021-09-01T09:15:40Z</time>
      </trkpt>
      <trkpt lat="44.41855" lon="6.70828">
        <ele>1497.7</ele>
        <time>2021-09-01T09:15:44Z</time>
      </trkpt>
      <trkpt lat="44.41862" lon="6.70829">
        <ele>1497.9</ele>
        <time>2021-09-01T09:15:48Z</time>
      </trkpt>
      <trkpt lat="44.41867" lon="6.70828">
        <ele>1498.5</ele>
        <time>2021-09-01T09:15:52Z</time>
      </trkpt>
      <trkpt lat="44.41874" lon="6.70829">
        <ele>1498.6</ele>
        <time>2021-09-01T09:15:56Z</time>
      </trkpt>
      <trkpt lat="44.41882" lon="6.7083">
        <ele>1498.8</ele>
        <time>2021-09-01T09:16:00Z</time>
      </trkpt>
      <trkpt lat="44.41892" lon="6.70829">
        <ele>1499.7</ele>
        <time>2021-09-01T09:16:04Z</time>
      </trkpt>
      <trkpt lat="44.41897" lon="6.70823">
        <ele>1501.7</ele>
        <time>2021-09-01T09:16:08Z</time>
      </trkpt>
      <trkpt lat="44.41893" lon="6.70821">
        <ele>1502</ele>
        <time>2021-09-01T09:16:12Z</time>
      </trkpt>
      <trkpt lat="44.41887" lon="6.70819">
        <ele>1502.2</ele>
        <time>2021-09-01T09:16:16Z</time>
      </trkpt>
      <trkpt lat="44.41883" lon="6.70816">
        <ele>1502.8</ele>
        <time>2021-09-01T09:16:20Z</time>
      </trkpt>
      <trkpt lat="44.41879" lon="6.70812">
        <ele>1503.7</ele>
        <time>2021-09-01T09:16:24Z</time>
      </trkpt>
      <trkpt lat="44.41875" lon="6.70809">
        <ele>1504.2</ele>
        <time>2021-09-01T09:16:28Z</time>
      </trkpt>
      <trkpt lat="44.4187" lon="6.70806">
        <ele>1504.7</ele>
        <time>2021-09-01T09:16:32Z</time>
      </trkpt>
      <trkpt lat="44.41863" lon="6.70804">
        <ele>1504.8</ele>
        <time>2021-09-01T09:16:36Z</time>
      </trkpt>
      <trkpt lat="44.41853" lon="6.70801">
        <ele>1504.9</ele>
        <time>2021-09-01T09:16:40Z</time>
      </trkpt>
      <trkpt lat="44.41846" lon="6.70799">
        <ele>1504.9</ele>
        <time>2021-09-01T09:16:44Z</time>
      </trkpt>
      <trkpt lat="44.4184" lon="6.70798">
        <ele>1504.8</ele>
        <time>2021-09-01T09:16:48Z</time>
      </trkpt>
      <trkpt lat="44.4183" lon="6.70794">
        <ele>1505.1</ele>
        <time>2021-09-01T09:16:52Z</time>
      </trkpt>
      <trkpt lat="44.41822" lon="6.70793">
        <ele>1504.8</ele>
        <time>2021-09-01T09:16:56Z</time>
      </trkpt>
      <trkpt lat="44.41815" lon="6.70792">
        <ele>1504.5</ele>
        <time>2021-09-01T09:17:00Z</time>
      </trkpt>
      <trkpt lat="44.41807" lon="6.70791">
        <ele>1504.1</ele>
        <time>2021-09-01T09:17:04Z</time>
      </trkpt>
      <trkpt lat="44.41799" lon="6.70789">
        <ele>1503.9</ele>
        <time>2021-09-01T09:17:08Z</time>
      </trkpt>
      <trkpt lat="44.41791" lon="6.70787">
        <ele>1503.7</ele>
        <time>2021-09-01T09:17:12Z</time>
      </trkpt>
      <trkpt lat="44.41781" lon="6.70787">
        <ele>1502.9</ele>
        <time>2021-09-01T09:17:16Z</time>
      </trkpt>
      <trkpt lat="44.41772" lon="6.70788">
        <ele>1502</ele>
        <time>2021-09-01T09:17:20Z</time>
      </trkpt>
      <trkpt lat="44.41763" lon="6.70786">
        <ele>1501.6</ele>
        <time>2021-09-01T09:17:24Z</time>
      </trkpt>
      <trkpt lat="44.41755" lon="6.7078">
        <ele>1502</ele>
        <time>2021-09-01T09:17:28Z</time>
      </trkpt>
      <trkpt lat="44.41748" lon="6.7077">
        <ele>1503</ele>
        <time>2021-09-01T09:17:32Z</time>
      </trkpt>
      <trkpt lat="44.4174" lon="6.7076">
        <ele>1503.2</ele>
        <time>2021-09-01T09:17:36Z</time>
      </trkpt>
      <trkpt lat="44.41732" lon="6.70748">
        <ele>1503.7</ele>
        <time>2021-09-01T09:17:40Z</time>
      </trkpt>
      <trkpt lat="44.41723" lon="6.70735">
        <ele>1504.1</ele>
        <time>2021-09-01T09:17:44Z</time>
      </trkpt>
      <trkpt lat="44.41713" lon="6.70722">
        <ele>1504.2</ele>
        <time>2021-09-01T09:17:48Z</time>
      </trkpt>
      <trkpt lat="44.41703" lon="6.70709">
        <ele>1504.2</ele>
        <time>2021-09-01T09:17:52Z</time>
      </trkpt>
      <trkpt lat="44.41694" lon="6.70696">
        <ele>1504.2</ele>
        <time>2021-09-01T09:17:56Z</time>
      </trkpt>
      <trkpt lat="44.41685" lon="6.70682">
        <ele>1504.3</ele>
        <time>2021-09-01T09:18:00Z</time>
      </trkpt>
      <trkpt lat="44.41676" lon="6.7067">
        <ele>1503.9</ele>
        <time>2021-09-01T09:18:04Z</time>
      </trkpt>
      <trkpt lat="44.41667" lon="6.7066">
        <ele>1503</ele>
        <time>2021-09-01T09:18:08Z</time>
      </trkpt>
      <trkpt lat="44.41659" lon="6.7065">
        <ele>1501.3</ele>
        <time>2021-09-01T09:18:12Z</time>
      </trkpt>
      <trkpt lat="44.41656" lon="6.70638">
        <ele>1502</ele>
        <time>2021-09-01T09:18:16Z</time>
      </trkpt>
      <trkpt lat="44.41656" lon="6.70625">
        <ele>1503.9</ele>
        <time>2021-09-01T09:18:20Z</time>
      </trkpt>
      <trkpt lat="44.41657" lon="6.70614">
        <ele>1505.9</ele>
        <time>2021-09-01T09:18:24Z</time>
      </trkpt>
      <trkpt lat="44.41656" lon="6.70602">
        <ele>1507.4</ele>
        <time>2021-09-01T09:18:28Z</time>
      </trkpt>
      <trkpt lat="44.41654" lon="6.7059">
        <ele>1508.4</ele>
        <time>2021-09-01T09:18:32Z</time>
      </trkpt>
      <trkpt lat="44.41651" lon="6.7058">
        <ele>1508.6</ele>
        <time>2021-09-01T09:18:36Z</time>
      </trkpt>
      <trkpt lat="44.41648" lon="6.70568">
        <ele>1508.6</ele>
        <time>2021-09-01T09:18:40Z</time>
      </trkpt>
      <trkpt lat="44.41647" lon="6.70554">
        <ele>1509.5</ele>
        <time>2021-09-01T09:18:44Z</time>
      </trkpt>
      <trkpt lat="44.41651" lon="6.70542">
        <ele>1511.9</ele>
        <time>2021-09-01T09:18:48Z</time>
      </trkpt>
      <trkpt lat="44.41653" lon="6.7053">
        <ele>1513.7</ele>
        <time>2021-09-01T09:18:52Z</time>
      </trkpt>
      <trkpt lat="44.41657" lon="6.7052">
        <ele>1515.9</ele>
        <time>2021-09-01T09:18:56Z</time>
      </trkpt>
      <trkpt lat="44.41658" lon="6.70508">
        <ele>1517.3</ele>
        <time>2021-09-01T09:19:00Z</time>
      </trkpt>
      <trkpt lat="44.4166" lon="6.70492">
        <ele>1518.5</ele>
        <time>2021-09-01T09:19:04Z</time>
      </trkpt>
      <trkpt lat="44.4166" lon="6.70484">
        <ele>1518.3</ele>
        <time>2021-09-01T09:19:08Z</time>
      </trkpt>
      <trkpt lat="44.41656" lon="6.70477">
        <ele>1517</ele>
        <time>2021-09-01T09:19:36Z</time>
      </trkpt>
      <trkpt lat="44.41654" lon="6.70471">
        <ele>1516.3</ele>
        <time>2021-09-01T09:19:40Z</time>
      </trkpt>
      <trkpt lat="44.4165" lon="6.7046">
        <ele>1515.1</ele>
        <time>2021-09-01T09:19:44Z</time>
      </trkpt>
      <trkpt lat="44.41647" lon="6.70447">
        <ele>1514.3</ele>
        <time>2021-09-01T09:19:48Z</time>
      </trkpt>
      <trkpt lat="44.41645" lon="6.70433">
        <ele>1514</ele>
        <time>2021-09-01T09:19:52Z</time>
      </trkpt>
      <trkpt lat="44.41641" lon="6.70418">
        <ele>1513.4</ele>
        <time>2021-09-01T09:19:56Z</time>
      </trkpt>
      <trkpt lat="44.41634" lon="6.70399">
        <ele>1514</ele>
        <time>2021-09-01T09:20:00Z</time>
      </trkpt>
      <trkpt lat="44.4163" lon="6.70385">
        <ele>1514.9</ele>
        <time>2021-09-01T09:20:04Z</time>
      </trkpt>
      <trkpt lat="44.41631" lon="6.70375">
        <ele>1516.1</ele>
        <time>2021-09-01T09:20:08Z</time>
      </trkpt>
      <trkpt lat="44.41632" lon="6.70367">
        <ele>1517.1</ele>
        <time>2021-09-01T09:20:12Z</time>
      </trkpt>
      <trkpt lat="44.41634" lon="6.70361">
        <ele>1518</ele>
        <time>2021-09-01T09:20:16Z</time>
      </trkpt>
      <trkpt lat="44.41637" lon="6.70355">
        <ele>1518.9</ele>
        <time>2021-09-01T09:20:20Z</time>
      </trkpt>
      <trkpt lat="44.41639" lon="6.70349">
        <ele>1519.8</ele>
        <time>2021-09-01T09:20:24Z</time>
      </trkpt>
      <trkpt lat="44.41639" lon="6.70342">
        <ele>1520.5</ele>
        <time>2021-09-01T09:20:28Z</time>
      </trkpt>
      <trkpt lat="44.41642" lon="6.70337">
        <ele>1521.3</ele>
        <time>2021-09-01T09:20:32Z</time>
      </trkpt>
      <trkpt lat="44.41645" lon="6.70329">
        <ele>1522.3</ele>
        <time>2021-09-01T09:20:36Z</time>
      </trkpt>
      <trkpt lat="44.41647" lon="6.70324">
        <ele>1523</ele>
        <time>2021-09-01T09:20:40Z</time>
      </trkpt>
      <trkpt lat="44.4165" lon="6.70318">
        <ele>1523.8</ele>
        <time>2021-09-01T09:20:44Z</time>
      </trkpt>
      <trkpt lat="44.41652" lon="6.70312">
        <ele>1524.5</ele>
        <time>2021-09-01T09:20:48Z</time>
      </trkpt>
      <trkpt lat="44.41654" lon="6.70306">
        <ele>1525.3</ele>
        <time>2021-09-01T09:20:52Z</time>
      </trkpt>
      <trkpt lat="44.41656" lon="6.70301">
        <ele>1526</ele>
        <time>2021-09-01T09:20:56Z</time>
      </trkpt>
      <trkpt lat="44.41658" lon="6.70294">
        <ele>1526.8</ele>
        <time>2021-09-01T09:21:00Z</time>
      </trkpt>
      <trkpt lat="44.4166" lon="6.70288">
        <ele>1527.6</ele>
        <time>2021-09-01T09:21:04Z</time>
      </trkpt>
      <trkpt lat="44.41661" lon="6.70283">
        <ele>1528.2</ele>
        <time>2021-09-01T09:21:08Z</time>
      </trkpt>
      <trkpt lat="44.41664" lon="6.70278">
        <ele>1529</ele>
        <time>2021-09-01T09:21:12Z</time>
      </trkpt>
      <trkpt lat="44.41666" lon="6.70274">
        <ele>1529.6</ele>
        <time>2021-09-01T09:21:16Z</time>
      </trkpt>
      <trkpt lat="44.41669" lon="6.7027">
        <ele>1530.9</ele>
        <time>2021-09-01T09:21:20Z</time>
      </trkpt>
      <trkpt lat="44.41671" lon="6.70266">
        <ele>1531.9</ele>
        <time>2021-09-01T09:21:24Z</time>
      </trkpt>
      <trkpt lat="44.41674" lon="6.70261">
        <ele>1533.4</ele>
        <time>2021-09-01T09:21:28Z</time>
      </trkpt>
      <trkpt lat="44.41675" lon="6.70256">
        <ele>1534.2</ele>
        <time>2021-09-01T09:21:32Z</time>
      </trkpt>
      <trkpt lat="44.41678" lon="6.70252">
        <ele>1535.6</ele>
        <time>2021-09-01T09:21:36Z</time>
      </trkpt>
      <trkpt lat="44.4168" lon="6.70247">
        <ele>1536.7</ele>
        <time>2021-09-01T09:21:40Z</time>
      </trkpt>
      <trkpt lat="44.41681" lon="6.70242">
        <ele>1537.5</ele>
        <time>2021-09-01T09:21:44Z</time>
      </trkpt>
      <trkpt lat="44.41683" lon="6.70238">
        <ele>1538.5</ele>
        <time>2021-09-01T09:21:48Z</time>
      </trkpt>
      <trkpt lat="44.41683" lon="6.70232">
        <ele>1539</ele>
        <time>2021-09-01T09:21:52Z</time>
      </trkpt>
      <trkpt lat="44.41684" lon="6.70226">
        <ele>1539.9</ele>
        <time>2021-09-01T09:21:56Z</time>
      </trkpt>
      <trkpt lat="44.41684" lon="6.70221">
        <ele>1540.3</ele>
        <time>2021-09-01T09:22:00Z</time>
      </trkpt>
      <trkpt lat="44.41685" lon="6.70214">
        <ele>1541.2</ele>
        <time>2021-09-01T09:22:04Z</time>
      </trkpt>
      <trkpt lat="44.41686" lon="6.70208">
        <ele>1542.1</ele>
        <time>2021-09-01T09:22:08Z</time>
      </trkpt>
      <trkpt lat="44.41688" lon="6.70202">
        <ele>1543.2</ele>
        <time>2021-09-01T09:22:12Z</time>
      </trkpt>
      <trkpt lat="44.4169" lon="6.70196">
        <ele>1544.3</ele>
        <time>2021-09-01T09:22:16Z</time>
      </trkpt>
      <trkpt lat="44.41694" lon="6.7019">
        <ele>1546</ele>
        <time>2021-09-01T09:22:20Z</time>
      </trkpt>
      <trkpt lat="44.41697" lon="6.70185">
        <ele>1547.3</ele>
        <time>2021-09-01T09:22:24Z</time>
      </trkpt>
      <trkpt lat="44.41698" lon="6.70178">
        <ele>1548.1</ele>
        <time>2021-09-01T09:22:28Z</time>
      </trkpt>
      <trkpt lat="44.417" lon="6.70172">
        <ele>1549.2</ele>
        <time>2021-09-01T09:22:32Z</time>
      </trkpt>
      <trkpt lat="44.41702" lon="6.70166">
        <ele>1550.2</ele>
        <time>2021-09-01T09:22:36Z</time>
      </trkpt>
      <trkpt lat="44.41704" lon="6.7016">
        <ele>1551.2</ele>
        <time>2021-09-01T09:22:40Z</time>
      </trkpt>
      <trkpt lat="44.41702" lon="6.70151">
        <ele>1551.3</ele>
        <time>2021-09-01T09:22:44Z</time>
      </trkpt>
      <trkpt lat="44.41699" lon="6.7014">
        <ele>1551.2</ele>
        <time>2021-09-01T09:22:48Z</time>
      </trkpt>
      <trkpt lat="44.41696" lon="6.70121">
        <ele>1551.7</ele>
        <time>2021-09-01T09:22:52Z</time>
      </trkpt>
      <trkpt lat="44.41695" lon="6.70103">
        <ele>1552.7</ele>
        <time>2021-09-01T09:22:56Z</time>
      </trkpt>
      <trkpt lat="44.41694" lon="6.70088">
        <ele>1553.5</ele>
        <time>2021-09-01T09:23:00Z</time>
      </trkpt>
      <trkpt lat="44.41691" lon="6.70073">
        <ele>1553.6</ele>
        <time>2021-09-01T09:23:04Z</time>
      </trkpt>
      <trkpt lat="44.41689" lon="6.70057">
        <ele>1553.8</ele>
        <time>2021-09-01T09:23:08Z</time>
      </trkpt>
      <trkpt lat="44.41687" lon="6.70042">
        <ele>1554.1</ele>
        <time>2021-09-01T09:23:12Z</time>
      </trkpt>
      <trkpt lat="44.41688" lon="6.70027">
        <ele>1555.2</ele>
        <time>2021-09-01T09:23:16Z</time>
      </trkpt>
      <trkpt lat="44.41688" lon="6.70014">
        <ele>1555.9</ele>
        <time>2021-09-01T09:23:20Z</time>
      </trkpt>
      <trkpt lat="44.41686" lon="6.70001">
        <ele>1556</ele>
        <time>2021-09-01T09:23:24Z</time>
      </trkpt>
      <trkpt lat="44.4168" lon="6.6999">
        <ele>1555.9</ele>
        <time>2021-09-01T09:23:28Z</time>
      </trkpt>
      <trkpt lat="44.41673" lon="6.6998">
        <ele>1555.7</ele>
        <time>2021-09-01T09:23:32Z</time>
      </trkpt>
      <trkpt lat="44.41665" lon="6.69971">
        <ele>1555.4</ele>
        <time>2021-09-01T09:23:36Z</time>
      </trkpt>
      <trkpt lat="44.41656" lon="6.69963">
        <ele>1556</ele>
        <time>2021-09-01T09:23:40Z</time>
      </trkpt>
      <trkpt lat="44.41647" lon="6.69957">
        <ele>1556.1</ele>
        <time>2021-09-01T09:23:44Z</time>
      </trkpt>
      <trkpt lat="44.41638" lon="6.69951">
        <ele>1556.1</ele>
        <time>2021-09-01T09:23:48Z</time>
      </trkpt>
      <trkpt lat="44.41628" lon="6.69945">
        <ele>1555.9</ele>
        <time>2021-09-01T09:23:52Z</time>
      </trkpt>
      <trkpt lat="44.41625" lon="6.69934">
        <ele>1556.7</ele>
        <time>2021-09-01T09:23:56Z</time>
      </trkpt>
      <trkpt lat="44.41633" lon="6.69925">
        <ele>1558.6</ele>
        <time>2021-09-01T09:24:00Z</time>
      </trkpt>
      <trkpt lat="44.4164" lon="6.69918">
        <ele>1560.3</ele>
        <time>2021-09-01T09:24:04Z</time>
      </trkpt>
      <trkpt lat="44.41649" lon="6.69913">
        <ele>1561.8</ele>
        <time>2021-09-01T09:24:08Z</time>
      </trkpt>
      <trkpt lat="44.41658" lon="6.69911">
        <ele>1563.1</ele>
        <time>2021-09-01T09:24:12Z</time>
      </trkpt>
      <trkpt lat="44.41665" lon="6.69907">
        <ele>1564.2</ele>
        <time>2021-09-01T09:24:16Z</time>
      </trkpt>
      <trkpt lat="44.4167" lon="6.69902">
        <ele>1565.3</ele>
        <time>2021-09-01T09:24:20Z</time>
      </trkpt>
      <trkpt lat="44.41675" lon="6.69897">
        <ele>1566.6</ele>
        <time>2021-09-01T09:24:24Z</time>
      </trkpt>
      <trkpt lat="44.41679" lon="6.69891">
        <ele>1567.7</ele>
        <time>2021-09-01T09:24:28Z</time>
      </trkpt>
      <trkpt lat="44.41684" lon="6.69887">
        <ele>1569</ele>
        <time>2021-09-01T09:24:32Z</time>
      </trkpt>
      <trkpt lat="44.41689" lon="6.69882">
        <ele>1570.4</ele>
        <time>2021-09-01T09:24:36Z</time>
      </trkpt>
      <trkpt lat="44.41693" lon="6.69878">
        <ele>1571.5</ele>
        <time>2021-09-01T09:24:40Z</time>
      </trkpt>
      <trkpt lat="44.41698" lon="6.69875">
        <ele>1572.8</ele>
        <time>2021-09-01T09:24:44Z</time>
      </trkpt>
      <trkpt lat="44.41702" lon="6.6987">
        <ele>1574</ele>
        <time>2021-09-01T09:24:48Z</time>
      </trkpt>
      <trkpt lat="44.41706" lon="6.69864">
        <ele>1575.4</ele>
        <time>2021-09-01T09:24:52Z</time>
      </trkpt>
      <trkpt lat="44.41707" lon="6.69856">
        <ele>1576.3</ele>
        <time>2021-09-01T09:24:56Z</time>
      </trkpt>
      <trkpt lat="44.41708" lon="6.69848">
        <ele>1577.2</ele>
        <time>2021-09-01T09:25:00Z</time>
      </trkpt>
      <trkpt lat="44.41708" lon="6.69838">
        <ele>1578</ele>
        <time>2021-09-01T09:25:04Z</time>
      </trkpt>
      <trkpt lat="44.41709" lon="6.69829">
        <ele>1579.1</ele>
        <time>2021-09-01T09:25:08Z</time>
      </trkpt>
      <trkpt lat="44.41711" lon="6.69819">
        <ele>1580.6</ele>
        <time>2021-09-01T09:25:12Z</time>
      </trkpt>
      <trkpt lat="44.4171" lon="6.69812">
        <ele>1581.1</ele>
        <time>2021-09-01T09:25:16Z</time>
      </trkpt>
      <trkpt lat="44.41711" lon="6.69804">
        <ele>1582.1</ele>
        <time>2021-09-01T09:25:20Z</time>
      </trkpt>
      <trkpt lat="44.41712" lon="6.69797">
        <ele>1583.1</ele>
        <time>2021-09-01T09:25:24Z</time>
      </trkpt>
      <trkpt lat="44.41712" lon="6.69789">
        <ele>1583.9</ele>
        <time>2021-09-01T09:25:28Z</time>
      </trkpt>
      <trkpt lat="44.41711" lon="6.6978">
        <ele>1584.6</ele>
        <time>2021-09-01T09:25:32Z</time>
      </trkpt>
      <trkpt lat="44.41709" lon="6.69771">
        <ele>1585</ele>
        <time>2021-09-01T09:25:36Z</time>
      </trkpt>
      <trkpt lat="44.41703" lon="6.69761">
        <ele>1584.7</ele>
        <time>2021-09-01T09:25:40Z</time>
      </trkpt>
      <trkpt lat="44.417" lon="6.69751">
        <ele>1585.1</ele>
        <time>2021-09-01T09:25:44Z</time>
      </trkpt>
      <trkpt lat="44.41694" lon="6.6974">
        <ele>1585.6</ele>
        <time>2021-09-01T09:25:48Z</time>
      </trkpt>
      <trkpt lat="44.41688" lon="6.69732">
        <ele>1585.5</ele>
        <time>2021-09-01T09:25:52Z</time>
      </trkpt>
      <trkpt lat="44.41682" lon="6.69727">
        <ele>1584.9</ele>
        <time>2021-09-01T09:25:56Z</time>
      </trkpt>
      <trkpt lat="44.41678" lon="6.69722">
        <ele>1584.8</ele>
        <time>2021-09-01T09:26:00Z</time>
      </trkpt>
      <trkpt lat="44.41672" lon="6.69715">
        <ele>1584.4</ele>
        <time>2021-09-01T09:26:04Z</time>
      </trkpt>
      <trkpt lat="44.41667" lon="6.69708">
        <ele>1584.1</ele>
        <time>2021-09-01T09:26:08Z</time>
      </trkpt>
      <trkpt lat="44.41663" lon="6.697">
        <ele>1583.7</ele>
        <time>2021-09-01T09:26:12Z</time>
      </trkpt>
      <trkpt lat="44.41659" lon="6.69693">
        <ele>1583</ele>
        <time>2021-09-01T09:26:16Z</time>
      </trkpt>
      <trkpt lat="44.41658" lon="6.69685">
        <ele>1583.6</ele>
        <time>2021-09-01T09:26:20Z</time>
      </trkpt>
      <trkpt lat="44.41662" lon="6.69681">
        <ele>1585.9</ele>
        <time>2021-09-01T09:26:24Z</time>
      </trkpt>
      <trkpt lat="44.41667" lon="6.69684">
        <ele>1587.6</ele>
        <time>2021-09-01T09:26:28Z</time>
      </trkpt>
      <trkpt lat="44.41671" lon="6.69687">
        <ele>1588.2</ele>
        <time>2021-09-01T09:26:32Z</time>
      </trkpt>
      <trkpt lat="44.41676" lon="6.69692">
        <ele>1588.8</ele>
        <time>2021-09-01T09:26:36Z</time>
      </trkpt>
      <trkpt lat="44.41681" lon="6.69694">
        <ele>1589.9</ele>
        <time>2021-09-01T09:26:40Z</time>
      </trkpt>
      <trkpt lat="44.41686" lon="6.69695">
        <ele>1591</ele>
        <time>2021-09-01T09:26:44Z</time>
      </trkpt>
      <trkpt lat="44.41691" lon="6.69695">
        <ele>1592.3</ele>
        <time>2021-09-01T09:26:48Z</time>
      </trkpt>
      <trkpt lat="44.41698" lon="6.69697">
        <ele>1593.8</ele>
        <time>2021-09-01T09:26:52Z</time>
      </trkpt>
      <trkpt lat="44.41705" lon="6.69699">
        <ele>1595.3</ele>
        <time>2021-09-01T09:26:56Z</time>
      </trkpt>
      <trkpt lat="44.41711" lon="6.69702">
        <ele>1596.3</ele>
        <time>2021-09-01T09:27:00Z</time>
      </trkpt>
      <trkpt lat="44.41717" lon="6.69705">
        <ele>1597.3</ele>
        <time>2021-09-01T09:27:04Z</time>
      </trkpt>
      <trkpt lat="44.41724" lon="6.69708">
        <ele>1598.5</ele>
        <time>2021-09-01T09:27:08Z</time>
      </trkpt>
      <trkpt lat="44.41729" lon="6.69709">
        <ele>1599.6</ele>
        <time>2021-09-01T09:27:12Z</time>
      </trkpt>
      <trkpt lat="44.41737" lon="6.69712">
        <ele>1601</ele>
        <time>2021-09-01T09:27:16Z</time>
      </trkpt>
      <trkpt lat="44.41745" lon="6.69717">
        <ele>1601.9</ele>
        <time>2021-09-01T09:27:20Z</time>
      </trkpt>
      <trkpt lat="44.41752" lon="6.69721">
        <ele>1602.9</ele>
        <time>2021-09-01T09:27:24Z</time>
      </trkpt>
      <trkpt lat="44.41757" lon="6.69728">
        <ele>1603.1</ele>
        <time>2021-09-01T09:27:28Z</time>
      </trkpt>
      <trkpt lat="44.41764" lon="6.6973">
        <ele>1605</ele>
        <time>2021-09-01T09:27:32Z</time>
      </trkpt>
      <trkpt lat="44.41773" lon="6.69738">
        <ele>1606.5</ele>
        <time>2021-09-01T09:27:36Z</time>
      </trkpt>
      <trkpt lat="44.41777" lon="6.69753">
        <ele>1605.5</ele>
        <time>2021-09-01T09:27:40Z</time>
      </trkpt>
      <trkpt lat="44.41779" lon="6.69763">
        <ele>1605.3</ele>
        <time>2021-09-01T09:27:44Z</time>
      </trkpt>
      <trkpt lat="44.41782" lon="6.69772">
        <ele>1605.7</ele>
        <time>2021-09-01T09:27:48Z</time>
      </trkpt>
      <trkpt lat="44.41783" lon="6.6978">
        <ele>1605.4</ele>
        <time>2021-09-01T09:27:52Z</time>
      </trkpt>
      <trkpt lat="44.41785" lon="6.69789">
        <ele>1605.3</ele>
        <time>2021-09-01T09:27:56Z</time>
      </trkpt>
      <trkpt lat="44.41788" lon="6.69798">
        <ele>1605.6</ele>
        <time>2021-09-01T09:28:00Z</time>
      </trkpt>
      <trkpt lat="44.41792" lon="6.69806">
        <ele>1606.4</ele>
        <time>2021-09-01T09:28:04Z</time>
      </trkpt>
      <trkpt lat="44.41796" lon="6.69812">
        <ele>1607.4</ele>
        <time>2021-09-01T09:28:08Z</time>
      </trkpt>
      <trkpt lat="44.418" lon="6.69818">
        <ele>1608.3</ele>
        <time>2021-09-01T09:28:12Z</time>
      </trkpt>
      <trkpt lat="44.41805" lon="6.69823">
        <ele>1609.7</ele>
        <time>2021-09-01T09:28:16Z</time>
      </trkpt>
      <trkpt lat="44.41809" lon="6.69831">
        <ele>1610.4</ele>
        <time>2021-09-01T09:28:20Z</time>
      </trkpt>
      <trkpt lat="44.41815" lon="6.69835">
        <ele>1612.1</ele>
        <time>2021-09-01T09:28:24Z</time>
      </trkpt>
      <trkpt lat="44.41821" lon="6.69842">
        <ele>1612.7</ele>
        <time>2021-09-01T09:28:28Z</time>
      </trkpt>
      <trkpt lat="44.41827" lon="6.69849">
        <ele>1613.3</ele>
        <time>2021-09-01T09:28:32Z</time>
      </trkpt>
      <trkpt lat="44.41833" lon="6.69853">
        <ele>1614.4</ele>
        <time>2021-09-01T09:28:36Z</time>
      </trkpt>
      <trkpt lat="44.41841" lon="6.69858">
        <ele>1615.9</ele>
        <time>2021-09-01T09:28:40Z</time>
      </trkpt>
      <trkpt lat="44.41847" lon="6.69864">
        <ele>1616.6</ele>
        <time>2021-09-01T09:28:44Z</time>
      </trkpt>
      <trkpt lat="44.41856" lon="6.69871">
        <ele>1618</ele>
        <time>2021-09-01T09:28:48Z</time>
      </trkpt>
      <trkpt lat="44.41865" lon="6.69878">
        <ele>1619.5</ele>
        <time>2021-09-01T09:28:52Z</time>
      </trkpt>
      <trkpt lat="44.41872" lon="6.69882">
        <ele>1621</ele>
        <time>2021-09-01T09:28:56Z</time>
      </trkpt>
      <trkpt lat="44.4188" lon="6.69888">
        <ele>1622.4</ele>
        <time>2021-09-01T09:29:00Z</time>
      </trkpt>
      <trkpt lat="44.41892" lon="6.69899">
        <ele>1624.1</ele>
        <time>2021-09-01T09:29:04Z</time>
      </trkpt>
      <trkpt lat="44.41903" lon="6.69913">
        <ele>1625</ele>
        <time>2021-09-01T09:29:08Z</time>
      </trkpt>
      <trkpt lat="44.41911" lon="6.69927">
        <ele>1625.6</ele>
        <time>2021-09-01T09:29:12Z</time>
      </trkpt>
      <trkpt lat="44.41912" lon="6.69945">
        <ele>1623.4</ele>
        <time>2021-09-01T09:29:16Z</time>
      </trkpt>
      <trkpt lat="44.41911" lon="6.69969">
        <ele>1619.6</ele>
        <time>2021-09-01T09:29:20Z</time>
      </trkpt>
      <trkpt lat="44.41908" lon="6.69986">
        <ele>1616.3</ele>
        <time>2021-09-01T09:29:24Z</time>
      </trkpt>
      <trkpt lat="44.41908" lon="6.70003">
        <ele>1614.5</ele>
        <time>2021-09-01T09:29:28Z</time>
      </trkpt>
      <trkpt lat="44.41905" lon="6.70018">
        <ele>1614.3</ele>
        <time>2021-09-01T09:29:32Z</time>
      </trkpt>
      <trkpt lat="44.41905" lon="6.70032">
        <ele>1615.1</ele>
        <time>2021-09-01T09:29:36Z</time>
      </trkpt>
      <trkpt lat="44.41906" lon="6.70045">
        <ele>1616.2</ele>
        <time>2021-09-01T09:29:40Z</time>
      </trkpt>
      <trkpt lat="44.41909" lon="6.70056">
        <ele>1617.8</ele>
        <time>2021-09-01T09:29:44Z</time>
      </trkpt>
      <trkpt lat="44.41913" lon="6.70064">
        <ele>1619.6</ele>
        <time>2021-09-01T09:29:48Z</time>
      </trkpt>
      <trkpt lat="44.41915" lon="6.70071">
        <ele>1620.7</ele>
        <time>2021-09-01T09:29:52Z</time>
      </trkpt>
      <trkpt lat="44.41917" lon="6.70086">
        <ele>1622.2</ele>
        <time>2021-09-01T09:29:56Z</time>
      </trkpt>
      <trkpt lat="44.41915" lon="6.701">
        <ele>1622</ele>
        <time>2021-09-01T09:30:00Z</time>
      </trkpt>
      <trkpt lat="44.41914" lon="6.70113">
        <ele>1622.1</ele>
        <time>2021-09-01T09:30:04Z</time>
      </trkpt>
      <trkpt lat="44.41915" lon="6.70123">
        <ele>1622.8</ele>
        <time>2021-09-01T09:30:08Z</time>
      </trkpt>
      <trkpt lat="44.41918" lon="6.70135">
        <ele>1624.1</ele>
        <time>2021-09-01T09:30:12Z</time>
      </trkpt>
      <trkpt lat="44.41921" lon="6.70147">
        <ele>1625.2</ele>
        <time>2021-09-01T09:30:16Z</time>
      </trkpt>
      <trkpt lat="44.41923" lon="6.70157">
        <ele>1625.9</ele>
        <time>2021-09-01T09:30:20Z</time>
      </trkpt>
      <trkpt lat="44.41925" lon="6.70168">
        <ele>1626.4</ele>
        <time>2021-09-01T09:30:24Z</time>
      </trkpt>
      <trkpt lat="44.41927" lon="6.70179">
        <ele>1626.4</ele>
        <time>2021-09-01T09:30:28Z</time>
      </trkpt>
      <trkpt lat="44.41934" lon="6.70187">
        <ele>1627.3</ele>
        <time>2021-09-01T09:30:32Z</time>
      </trkpt>
      <trkpt lat="44.41939" lon="6.70193">
        <ele>1627.9</ele>
        <time>2021-09-01T09:30:36Z</time>
      </trkpt>
      <trkpt lat="44.41944" lon="6.70202">
        <ele>1628.4</ele>
        <time>2021-09-01T09:30:40Z</time>
      </trkpt>
      <trkpt lat="44.41949" lon="6.70208">
        <ele>1628.9</ele>
        <time>2021-09-01T09:30:44Z</time>
      </trkpt>
      <trkpt lat="44.41954" lon="6.70215">
        <ele>1629.5</ele>
        <time>2021-09-01T09:30:48Z</time>
      </trkpt>
      <trkpt lat="44.41959" lon="6.7022">
        <ele>1630</ele>
        <time>2021-09-01T09:30:52Z</time>
      </trkpt>
      <trkpt lat="44.41966" lon="6.70223">
        <ele>1631.1</ele>
        <time>2021-09-01T09:30:56Z</time>
      </trkpt>
      <trkpt lat="44.41975" lon="6.70227">
        <ele>1632.3</ele>
        <time>2021-09-01T09:31:00Z</time>
      </trkpt>
      <trkpt lat="44.41984" lon="6.70228">
        <ele>1633.7</ele>
        <time>2021-09-01T09:31:04Z</time>
      </trkpt>
      <trkpt lat="44.41991" lon="6.70224">
        <ele>1635.1</ele>
        <time>2021-09-01T09:31:08Z</time>
      </trkpt>
      <trkpt lat="44.42" lon="6.70219">
        <ele>1636.9</ele>
        <time>2021-09-01T09:31:12Z</time>
      </trkpt>
      <trkpt lat="44.42009" lon="6.70212">
        <ele>1637.6</ele>
        <time>2021-09-01T09:31:16Z</time>
      </trkpt>
      <trkpt lat="44.42022" lon="6.7021">
        <ele>1638.3</ele>
        <time>2021-09-01T09:31:20Z</time>
      </trkpt>
      <trkpt lat="44.42032" lon="6.70213">
        <ele>1638.5</ele>
        <time>2021-09-01T09:31:24Z</time>
      </trkpt>
      <trkpt lat="44.42042" lon="6.70219">
        <ele>1638.3</ele>
        <time>2021-09-01T09:31:28Z</time>
      </trkpt>
      <trkpt lat="44.42056" lon="6.70223">
        <ele>1638.4</ele>
        <time>2021-09-01T09:31:32Z</time>
      </trkpt>
      <trkpt lat="44.42067" lon="6.70229">
        <ele>1638.1</ele>
        <time>2021-09-01T09:31:36Z</time>
      </trkpt>
      <trkpt lat="44.42079" lon="6.70234">
        <ele>1637.8</ele>
        <time>2021-09-01T09:31:40Z</time>
      </trkpt>
      <trkpt lat="44.42094" lon="6.70239">
        <ele>1638.4</ele>
        <time>2021-09-01T09:31:44Z</time>
      </trkpt>
      <trkpt lat="44.42105" lon="6.70234">
        <ele>1640.1</ele>
        <time>2021-09-01T09:31:48Z</time>
      </trkpt>
      <trkpt lat="44.42116" lon="6.70227">
        <ele>1642.4</ele>
        <time>2021-09-01T09:31:52Z</time>
      </trkpt>
      <trkpt lat="44.42125" lon="6.70219">
        <ele>1644.7</ele>
        <time>2021-09-01T09:31:56Z</time>
      </trkpt>
      <trkpt lat="44.4213" lon="6.70214">
        <ele>1646.2</ele>
        <time>2021-09-01T09:32:00Z</time>
      </trkpt>
      <trkpt lat="44.42133" lon="6.70209">
        <ele>1647.4</ele>
        <time>2021-09-01T09:32:04Z</time>
      </trkpt>
      <trkpt lat="44.42133" lon="6.70201">
        <ele>1648.9</ele>
        <time>2021-09-01T09:32:08Z</time>
      </trkpt>
      <trkpt lat="44.42132" lon="6.70192">
        <ele>1650.3</ele>
        <time>2021-09-01T09:32:12Z</time>
      </trkpt>
      <trkpt lat="44.42129" lon="6.70185">
        <ele>1651.1</ele>
        <time>2021-09-01T09:32:16Z</time>
      </trkpt>
      <trkpt lat="44.42127" lon="6.70175">
        <ele>1652.4</ele>
        <time>2021-09-01T09:32:20Z</time>
      </trkpt>
      <trkpt lat="44.42131" lon="6.70165">
        <ele>1654.9</ele>
        <time>2021-09-01T09:32:24Z</time>
      </trkpt>
      <trkpt lat="44.42138" lon="6.70159">
        <ele>1657.4</ele>
        <time>2021-09-01T09:32:28Z</time>
      </trkpt>
      <trkpt lat="44.42144" lon="6.70162">
        <ele>1657.9</ele>
        <time>2021-09-01T09:32:32Z</time>
      </trkpt>
      <trkpt lat="44.42148" lon="6.70166">
        <ele>1657.8</ele>
        <time>2021-09-01T09:32:36Z</time>
      </trkpt>
      <trkpt lat="44.42152" lon="6.70174">
        <ele>1656.9</ele>
        <time>2021-09-01T09:32:40Z</time>
      </trkpt>
      <trkpt lat="44.42154" lon="6.7018">
        <ele>1656</ele>
        <time>2021-09-01T09:32:44Z</time>
      </trkpt>
      <trkpt lat="44.42157" lon="6.70187">
        <ele>1655.1</ele>
        <time>2021-09-01T09:32:48Z</time>
      </trkpt>
      <trkpt lat="44.4216" lon="6.70191">
        <ele>1654.7</ele>
        <time>2021-09-01T09:32:52Z</time>
      </trkpt>
      <trkpt lat="44.42163" lon="6.70195">
        <ele>1654.3</ele>
        <time>2021-09-01T09:32:56Z</time>
      </trkpt>
      <trkpt lat="44.42165" lon="6.702">
        <ele>1653.6</ele>
        <time>2021-09-01T09:33:00Z</time>
      </trkpt>
      <trkpt lat="44.4217" lon="6.70207">
        <ele>1653.4</ele>
        <time>2021-09-01T09:33:04Z</time>
      </trkpt>
      <trkpt lat="44.42174" lon="6.70213">
        <ele>1653.3</ele>
        <time>2021-09-01T09:33:08Z</time>
      </trkpt>
      <trkpt lat="44.42176" lon="6.70219">
        <ele>1652.5</ele>
        <time>2021-09-01T09:33:12Z</time>
      </trkpt>
      <trkpt lat="44.42178" lon="6.70225">
        <ele>1651.7</ele>
        <time>2021-09-01T09:33:16Z</time>
      </trkpt>
      <trkpt lat="44.42182" lon="6.70229">
        <ele>1652</ele>
        <time>2021-09-01T09:33:20Z</time>
      </trkpt>
      <trkpt lat="44.42186" lon="6.70234">
        <ele>1651.9</ele>
        <time>2021-09-01T09:33:24Z</time>
      </trkpt>
      <trkpt lat="44.4219" lon="6.70237">
        <ele>1652.2</ele>
        <time>2021-09-01T09:33:28Z</time>
      </trkpt>
      <trkpt lat="44.42193" lon="6.70239">
        <ele>1652.5</ele>
        <time>2021-09-01T09:33:32Z</time>
      </trkpt>
      <trkpt lat="44.42196" lon="6.70243">
        <ele>1652.3</ele>
        <time>2021-09-01T09:33:36Z</time>
      </trkpt>
      <trkpt lat="44.42202" lon="6.70244">
        <ele>1653.6</ele>
        <time>2021-09-01T09:33:40Z</time>
      </trkpt>
      <trkpt lat="44.42208" lon="6.70246">
        <ele>1654.6</ele>
        <time>2021-09-01T09:33:44Z</time>
      </trkpt>
      <trkpt lat="44.42215" lon="6.70248">
        <ele>1655.8</ele>
        <time>2021-09-01T09:33:48Z</time>
      </trkpt>
      <trkpt lat="44.42221" lon="6.7025">
        <ele>1656.7</ele>
        <time>2021-09-01T09:33:52Z</time>
      </trkpt>
      <trkpt lat="44.42228" lon="6.70253">
        <ele>1657.5</ele>
        <time>2021-09-01T09:33:56Z</time>
      </trkpt>
      <trkpt lat="44.42235" lon="6.70255">
        <ele>1658.6</ele>
        <time>2021-09-01T09:34:00Z</time>
      </trkpt>
      <trkpt lat="44.42243" lon="6.70257">
        <ele>1659.8</ele>
        <time>2021-09-01T09:34:04Z</time>
      </trkpt>
      <trkpt lat="44.42251" lon="6.70254">
        <ele>1662.6</ele>
        <time>2021-09-01T09:34:08Z</time>
      </trkpt>
      <trkpt lat="44.42255" lon="6.7025">
        <ele>1664.2</ele>
        <time>2021-09-01T09:34:12Z</time>
      </trkpt>
      <trkpt lat="44.42262" lon="6.70245">
        <ele>1666.3</ele>
        <time>2021-09-01T09:34:16Z</time>
      </trkpt>
      <trkpt lat="44.42268" lon="6.7024">
        <ele>1668.4</ele>
        <time>2021-09-01T09:34:20Z</time>
      </trkpt>
      <trkpt lat="44.42274" lon="6.70236">
        <ele>1670.2</ele>
        <time>2021-09-01T09:34:24Z</time>
      </trkpt>
      <trkpt lat="44.42279" lon="6.70233">
        <ele>1671.7</ele>
        <time>2021-09-01T09:34:28Z</time>
      </trkpt>
      <trkpt lat="44.42284" lon="6.70229">
        <ele>1673.5</ele>
        <time>2021-09-01T09:34:32Z</time>
      </trkpt>
      <trkpt lat="44.42289" lon="6.70227">
        <ele>1674.6</ele>
        <time>2021-09-01T09:34:36Z</time>
      </trkpt>
      <trkpt lat="44.42293" lon="6.70225">
        <ele>1675.6</ele>
        <time>2021-09-01T09:34:40Z</time>
      </trkpt>
      <trkpt lat="44.42298" lon="6.70224">
        <ele>1676.3</ele>
        <time>2021-09-01T09:34:44Z</time>
      </trkpt>
      <trkpt lat="44.42304" lon="6.70223">
        <ele>1677.1</ele>
        <time>2021-09-01T09:34:48Z</time>
      </trkpt>
      <trkpt lat="44.42309" lon="6.70222">
        <ele>1677.9</ele>
        <time>2021-09-01T09:34:52Z</time>
      </trkpt>
      <trkpt lat="44.42313" lon="6.70221">
        <ele>1678.5</ele>
        <time>2021-09-01T09:34:56Z</time>
      </trkpt>
      <trkpt lat="44.42318" lon="6.70219">
        <ele>1679.7</ele>
        <time>2021-09-01T09:35:00Z</time>
      </trkpt>
      <trkpt lat="44.42323" lon="6.70217">
        <ele>1680.9</ele>
        <time>2021-09-01T09:35:04Z</time>
      </trkpt>
      <trkpt lat="44.42329" lon="6.70214">
        <ele>1682.7</ele>
        <time>2021-09-01T09:35:08Z</time>
      </trkpt>
      <trkpt lat="44.42333" lon="6.70209">
        <ele>1685.2</ele>
        <time>2021-09-01T09:35:12Z</time>
      </trkpt>
      <trkpt lat="44.42337" lon="6.70205">
        <ele>1686.8</ele>
        <time>2021-09-01T09:35:16Z</time>
      </trkpt>
      <trkpt lat="44.42343" lon="6.70203">
        <ele>1687.4</ele>
        <time>2021-09-01T09:35:20Z</time>
      </trkpt>
      <trkpt lat="44.42348" lon="6.70199">
        <ele>1689.1</ele>
        <time>2021-09-01T09:35:24Z</time>
      </trkpt>
      <trkpt lat="44.42353" lon="6.70196">
        <ele>1690.4</ele>
        <time>2021-09-01T09:35:28Z</time>
      </trkpt>
      <trkpt lat="44.42357" lon="6.70195">
        <ele>1690.7</ele>
        <time>2021-09-01T09:35:32Z</time>
      </trkpt>
      <trkpt lat="44.42361" lon="6.70195">
        <ele>1690.6</ele>
        <time>2021-09-01T09:35:36Z</time>
      </trkpt>
      <trkpt lat="44.42366" lon="6.70194">
        <ele>1691</ele>
        <time>2021-09-01T09:35:40Z</time>
      </trkpt>
      <trkpt lat="44.42365" lon="6.70187">
        <ele>1694.5</ele>
        <time>2021-09-01T09:48:36Z</time>
      </trkpt>
      <trkpt lat="44.42369" lon="6.70187">
        <ele>1694.5</ele>
        <time>2021-09-01T09:48:40Z</time>
      </trkpt>
      <trkpt lat="44.42372" lon="6.70189">
        <ele>1693.4</ele>
        <time>2021-09-01T09:48:44Z</time>
      </trkpt>
      <trkpt lat="44.42377" lon="6.70192">
        <ele>1691.7</ele>
        <time>2021-09-01T09:48:52Z</time>
      </trkpt>
      <trkpt lat="44.42382" lon="6.70194">
        <ele>1690.5</ele>
        <time>2021-09-01T09:48:56Z</time>
      </trkpt>
      <trkpt lat="44.4239" lon="6.70197">
        <ele>1688.7</ele>
        <time>2021-09-01T09:49:00Z</time>
      </trkpt>
      <trkpt lat="44.42404" lon="6.70202">
        <ele>1685.3</ele>
        <time>2021-09-01T09:49:04Z</time>
      </trkpt>
      <trkpt lat="44.42413" lon="6.70202">
        <ele>1685</ele>
        <time>2021-09-01T09:49:08Z</time>
      </trkpt>
      <trkpt lat="44.42425" lon="6.70206">
        <ele>1682.1</ele>
        <time>2021-09-01T09:49:12Z</time>
      </trkpt>
      <trkpt lat="44.42444" lon="6.70207">
        <ele>1680.8</ele>
        <time>2021-09-01T09:49:16Z</time>
      </trkpt>
      <trkpt lat="44.42457" lon="6.70202">
        <ele>1683.2</ele>
        <time>2021-09-01T09:49:20Z</time>
      </trkpt>
      <trkpt lat="44.42472" lon="6.70202">
        <ele>1682.6</ele>
        <time>2021-09-01T09:49:24Z</time>
      </trkpt>
      <trkpt lat="44.42476" lon="6.70205">
        <ele>1680.8</ele>
        <time>2021-09-01T09:49:28Z</time>
      </trkpt>
      <trkpt lat="44.42494" lon="6.70207">
        <ele>1679</ele>
        <time>2021-09-01T09:49:32Z</time>
      </trkpt>
      <trkpt lat="44.42505" lon="6.7021">
        <ele>1677.6</ele>
        <time>2021-09-01T09:49:36Z</time>
      </trkpt>
      <trkpt lat="44.42509" lon="6.70213">
        <ele>1676.4</ele>
        <time>2021-09-01T09:49:40Z</time>
      </trkpt>
      <trkpt lat="44.42518" lon="6.7022">
        <ele>1673.8</ele>
        <time>2021-09-01T09:49:44Z</time>
      </trkpt>
      <trkpt lat="44.42529" lon="6.70223">
        <ele>1673.8</ele>
        <time>2021-09-01T09:49:48Z</time>
      </trkpt>
      <trkpt lat="44.42536" lon="6.70233">
        <ele>1670.3</ele>
        <time>2021-09-01T09:49:52Z</time>
      </trkpt>
      <trkpt lat="44.42542" lon="6.70242">
        <ele>1667.5</ele>
        <time>2021-09-01T09:50:16Z</time>
      </trkpt>
      <trkpt lat="44.42538" lon="6.70239">
        <ele>1668</ele>
        <time>2021-09-01T09:50:20Z</time>
      </trkpt>
      <trkpt lat="44.42532" lon="6.70237">
        <ele>1667.8</ele>
        <time>2021-09-01T09:50:24Z</time>
      </trkpt>
      <trkpt lat="44.42527" lon="6.70238">
        <ele>1666.5</ele>
        <time>2021-09-01T09:50:28Z</time>
      </trkpt>
      <trkpt lat="44.42527" lon="6.70235">
        <ele>1667.9</ele>
        <time>2021-09-01T09:50:32Z</time>
      </trkpt>
      <trkpt lat="44.42528" lon="6.70236">
        <ele>1667.6</ele>
        <time>2021-09-01T09:50:36Z</time>
      </trkpt>
      <trkpt lat="44.42524" lon="6.70239">
        <ele>1665.5</ele>
        <time>2021-09-01T09:50:40Z</time>
      </trkpt>
      <trkpt lat="44.42516" lon="6.70241">
        <ele>1663</ele>
        <time>2021-09-01T09:50:44Z</time>
      </trkpt>
      <trkpt lat="44.42504" lon="6.70242">
        <ele>1660.2</ele>
        <time>2021-09-01T09:50:48Z</time>
      </trkpt>
      <trkpt lat="44.42491" lon="6.70245">
        <ele>1657.9</ele>
        <time>2021-09-01T09:50:52Z</time>
      </trkpt>
      <trkpt lat="44.42476" lon="6.70255">
        <ele>1653</ele>
        <time>2021-09-01T09:50:56Z</time>
      </trkpt>
      <trkpt lat="44.4246" lon="6.70264">
        <ele>1649.1</ele>
        <time>2021-09-01T09:51:00Z</time>
      </trkpt>
      <trkpt lat="44.42442" lon="6.70273">
        <ele>1645.2</ele>
        <time>2021-09-01T09:51:04Z</time>
      </trkpt>
      <trkpt lat="44.42431" lon="6.70275">
        <ele>1644.4</ele>
        <time>2021-09-01T09:51:08Z</time>
      </trkpt>
      <trkpt lat="44.42419" lon="6.7029">
        <ele>1637.7</ele>
        <time>2021-09-01T09:51:12Z</time>
      </trkpt>
      <trkpt lat="44.4241" lon="6.70304">
        <ele>1632.6</ele>
        <time>2021-09-01T09:51:16Z</time>
      </trkpt>
      <trkpt lat="44.42392" lon="6.70319">
        <ele>1629.5</ele>
        <time>2021-09-01T09:51:20Z</time>
      </trkpt>
      <trkpt lat="44.42373" lon="6.70339">
        <ele>1625</ele>
        <time>2021-09-01T09:51:24Z</time>
      </trkpt>
      <trkpt lat="44.4235" lon="6.70367">
        <ele>1618.4</ele>
        <time>2021-09-01T09:51:28Z</time>
      </trkpt>
      <trkpt lat="44.42345" lon="6.70378">
        <ele>1615</ele>
        <time>2021-09-01T09:51:32Z</time>
      </trkpt>
      <trkpt lat="44.42359" lon="6.70372">
        <ele>1614.3</ele>
        <time>2021-09-01T09:51:36Z</time>
      </trkpt>
      <trkpt lat="44.4237" lon="6.70369">
        <ele>1613</ele>
        <time>2021-09-01T09:51:40Z</time>
      </trkpt>
      <trkpt lat="44.42366" lon="6.70376">
        <ele>1610.9</ele>
        <time>2021-09-01T09:51:44Z</time>
      </trkpt>
      <trkpt lat="44.42356" lon="6.70398">
        <ele>1604.1</ele>
        <time>2021-09-01T09:51:48Z</time>
      </trkpt>
      <trkpt lat="44.42348" lon="6.70424">
        <ele>1595.5</ele>
        <time>2021-09-01T09:51:52Z</time>
      </trkpt>
      <trkpt lat="44.42354" lon="6.70424">
        <ele>1593.9</ele>
        <time>2021-09-01T09:51:56Z</time>
      </trkpt>
      <trkpt lat="44.42362" lon="6.70413">
        <ele>1596.3</ele>
        <time>2021-09-01T09:52:00Z</time>
      </trkpt>
      <trkpt lat="44.42381" lon="6.70406">
        <ele>1594.6</ele>
        <time>2021-09-01T09:52:04Z</time>
      </trkpt>
      <trkpt lat="44.42392" lon="6.70394">
        <ele>1597</ele>
        <time>2021-09-01T09:52:08Z</time>
      </trkpt>
      <trkpt lat="44.424" lon="6.70397">
        <ele>1593.8</ele>
        <time>2021-09-01T09:52:12Z</time>
      </trkpt>
      <trkpt lat="44.42402" lon="6.70411">
        <ele>1587.2</ele>
        <time>2021-09-01T09:52:16Z</time>
      </trkpt>
      <trkpt lat="44.42391" lon="6.70432">
        <ele>1580.4</ele>
        <time>2021-09-01T09:52:20Z</time>
      </trkpt>
      <trkpt lat="44.42385" lon="6.70452">
        <ele>1573.1</ele>
        <time>2021-09-01T09:52:24Z</time>
      </trkpt>
      <trkpt lat="44.42389" lon="6.70452">
        <ele>1571.9</ele>
        <time>2021-09-01T09:52:28Z</time>
      </trkpt>
      <trkpt lat="44.42394" lon="6.70442">
        <ele>1574.9</ele>
        <time>2021-09-01T09:52:32Z</time>
      </trkpt>
      <trkpt lat="44.42411" lon="6.70434">
        <ele>1573.9</ele>
        <time>2021-09-01T09:52:36Z</time>
      </trkpt>
      <trkpt lat="44.42416" lon="6.70439">
        <ele>1569.9</ele>
        <time>2021-09-01T09:52:40Z</time>
      </trkpt>
      <trkpt lat="44.42415" lon="6.70446">
        <ele>1566.7</ele>
        <time>2021-09-01T09:52:48Z</time>
      </trkpt>
      <trkpt lat="44.42419" lon="6.70452">
        <ele>1564.1</ele>
        <time>2021-09-01T09:52:52Z</time>
      </trkpt>
      <trkpt lat="44.42414" lon="6.70459">
        <ele>1560.5</ele>
        <time>2021-09-01T09:52:56Z</time>
      </trkpt>
      <trkpt lat="44.42409" lon="6.70466">
        <ele>1558.7</ele>
        <time>2021-09-01T09:53:00Z</time>
      </trkpt>
      <trkpt lat="44.42409" lon="6.70474">
        <ele>1554.8</ele>
        <time>2021-09-01T09:53:08Z</time>
      </trkpt>
      <trkpt lat="44.42404" lon="6.70482">
        <ele>1552.7</ele>
        <time>2021-09-01T09:53:12Z</time>
      </trkpt>
      <trkpt lat="44.42398" lon="6.70492">
        <ele>1550.2</ele>
        <time>2021-09-01T09:53:16Z</time>
      </trkpt>
      <trkpt lat="44.42403" lon="6.70493">
        <ele>1547.8</ele>
        <time>2021-09-01T09:53:20Z</time>
      </trkpt>
      <trkpt lat="44.42415" lon="6.70482">
        <ele>1548.7</ele>
        <time>2021-09-01T09:53:24Z</time>
      </trkpt>
      <trkpt lat="44.42427" lon="6.70483">
        <ele>1552.7</ele>
        <time>2021-09-01T09:53:28Z</time>
      </trkpt>
      <trkpt lat="44.42422" lon="6.70489">
        <ele>1547.3</ele>
        <time>2021-09-01T09:53:32Z</time>
      </trkpt>
      <trkpt lat="44.42417" lon="6.70497">
        <ele>1540.7</ele>
        <time>2021-09-01T09:53:36Z</time>
      </trkpt>
      <trkpt lat="44.42417" lon="6.70511">
        <ele>1536</ele>
        <time>2021-09-01T09:53:44Z</time>
      </trkpt>
      <trkpt lat="44.42409" lon="6.70521">
        <ele>1535.2</ele>
        <time>2021-09-01T09:53:48Z</time>
      </trkpt>
      <trkpt lat="44.42401" lon="6.70527">
        <ele>1535.4</ele>
        <time>2021-09-01T09:53:52Z</time>
      </trkpt>
      <trkpt lat="44.42389" lon="6.70532">
        <ele>1536.4</ele>
        <time>2021-09-01T09:53:56Z</time>
      </trkpt>
      <trkpt lat="44.42386" lon="6.7053">
        <ele>1538</ele>
        <time>2021-09-01T09:54:00Z</time>
      </trkpt>
      <trkpt lat="44.42383" lon="6.70533">
        <ele>1537.4</ele>
        <time>2021-09-01T09:54:04Z</time>
      </trkpt>
      <trkpt lat="44.4238" lon="6.70533">
        <ele>1538.1</ele>
        <time>2021-09-01T09:54:12Z</time>
      </trkpt>
      <trkpt lat="44.42374" lon="6.70539">
        <ele>1536.5</ele>
        <time>2021-09-01T09:54:16Z</time>
      </trkpt>
      <trkpt lat="44.42363" lon="6.70544">
        <ele>1536</ele>
        <time>2021-09-01T09:54:20Z</time>
      </trkpt>
      <trkpt lat="44.42356" lon="6.70549">
        <ele>1534.4</ele>
        <time>2021-09-01T09:54:24Z</time>
      </trkpt>
      <trkpt lat="44.42356" lon="6.70554">
        <ele>1531.4</ele>
        <time>2021-09-01T09:54:28Z</time>
      </trkpt>
      <trkpt lat="44.42354" lon="6.70557">
        <ele>1529.9</ele>
        <time>2021-09-01T09:54:32Z</time>
      </trkpt>
      <trkpt lat="44.42351" lon="6.70557">
        <ele>1530.3</ele>
        <time>2021-09-01T09:54:36Z</time>
      </trkpt>
      <trkpt lat="44.42347" lon="6.70559">
        <ele>1529.5</ele>
        <time>2021-09-01T09:54:40Z</time>
      </trkpt>
      <trkpt lat="44.42344" lon="6.70562">
        <ele>1527.9</ele>
        <time>2021-09-01T09:54:44Z</time>
      </trkpt>
      <trkpt lat="44.4234" lon="6.70564">
        <ele>1526.9</ele>
        <time>2021-09-01T09:54:48Z</time>
      </trkpt>
      <trkpt lat="44.42337" lon="6.70563">
        <ele>1527.8</ele>
        <time>2021-09-01T09:54:52Z</time>
      </trkpt>
      <trkpt lat="44.42336" lon="6.70566">
        <ele>1525.9</ele>
        <time>2021-09-01T09:54:56Z</time>
      </trkpt>
      <trkpt lat="44.42333" lon="6.7057">
        <ele>1523.4</ele>
        <time>2021-09-01T09:55:00Z</time>
      </trkpt>
      <trkpt lat="44.42332" lon="6.70573">
        <ele>1521.7</ele>
        <time>2021-09-01T09:55:04Z</time>
      </trkpt>
      <trkpt lat="44.42328" lon="6.70579">
        <ele>1519.2</ele>
        <time>2021-09-01T09:55:20Z</time>
      </trkpt>
      <trkpt lat="44.42326" lon="6.70583">
        <ele>1517.2</ele>
        <time>2021-09-01T09:55:24Z</time>
      </trkpt>
      <trkpt lat="44.42322" lon="6.70593">
        <ele>1514.3</ele>
        <time>2021-09-01T09:55:32Z</time>
      </trkpt>
      <trkpt lat="44.42319" lon="6.70596">
        <ele>1514.2</ele>
        <time>2021-09-01T09:55:36Z</time>
      </trkpt>
      <trkpt lat="44.42318" lon="6.70601">
        <ele>1512.3</ele>
        <time>2021-09-01T09:55:40Z</time>
      </trkpt>
      <trkpt lat="44.42317" lon="6.70609">
        <ele>1509.1</ele>
        <time>2021-09-01T09:55:44Z</time>
      </trkpt>
      <trkpt lat="44.42316" lon="6.70618">
        <ele>1505.5</ele>
        <time>2021-09-01T09:55:56Z</time>
      </trkpt>
      <trkpt lat="44.42313" lon="6.70624">
        <ele>1504</ele>
        <time>2021-09-01T09:56:00Z</time>
      </trkpt>
      <trkpt lat="44.42312" lon="6.70631">
        <ele>1501.2</ele>
        <time>2021-09-01T09:56:04Z</time>
      </trkpt>
      <trkpt lat="44.4231" lon="6.70639">
        <ele>1498.4</ele>
        <time>2021-09-01T09:56:08Z</time>
      </trkpt>
      <trkpt lat="44.42308" lon="6.70644">
        <ele>1497</ele>
        <time>2021-09-01T09:56:12Z</time>
      </trkpt>
      <trkpt lat="44.42306" lon="6.70647">
        <ele>1496.4</ele>
        <time>2021-09-01T09:56:16Z</time>
      </trkpt>
      <trkpt lat="44.42306" lon="6.70646">
        <ele>1496.8</ele>
        <time>2021-09-01T09:56:20Z</time>
      </trkpt>
      <trkpt lat="44.42307" lon="6.70646">
        <ele>1496.4</ele>
        <time>2021-09-01T09:56:24Z</time>
      </trkpt>
      <trkpt lat="44.42306" lon="6.70645">
        <ele>1497.3</ele>
        <time>2021-09-01T09:56:28Z</time>
      </trkpt>
      <trkpt lat="44.42305" lon="6.70644">
        <ele>1498.1</ele>
        <time>2021-09-01T09:56:36Z</time>
      </trkpt>
      <trkpt lat="44.42304" lon="6.70644">
        <ele>1498.5</ele>
        <time>2021-09-01T09:56:40Z</time>
      </trkpt>
      <trkpt lat="44.42303" lon="6.70644">
        <ele>1498.9</ele>
        <time>2021-09-01T09:56:44Z</time>
      </trkpt>
      <trkpt lat="44.423" lon="6.70645">
        <ele>1499.6</ele>
        <time>2021-09-01T09:56:48Z</time>
      </trkpt>
      <trkpt lat="44.42294" lon="6.70642">
        <ele>1503.3</ele>
        <time>2021-09-01T09:57:00Z</time>
      </trkpt>
      <trkpt lat="44.4229" lon="6.70644">
        <ele>1504</ele>
        <time>2021-09-01T09:57:04Z</time>
      </trkpt>
      <trkpt lat="44.42285" lon="6.70646">
        <ele>1505</ele>
        <time>2021-09-01T09:57:12Z</time>
      </trkpt>
      <trkpt lat="44.42283" lon="6.70644">
        <ele>1506.7</ele>
        <time>2021-09-01T09:57:16Z</time>
      </trkpt>
      <trkpt lat="44.42281" lon="6.70642">
        <ele>1508.4</ele>
        <time>2021-09-01T09:57:20Z</time>
      </trkpt>
      <trkpt lat="44.42278" lon="6.70642">
        <ele>1509.6</ele>
        <time>2021-09-01T09:57:24Z</time>
      </trkpt>
      <trkpt lat="44.42277" lon="6.70643">
        <ele>1509.5</ele>
        <time>2021-09-01T09:57:28Z</time>
      </trkpt>
      <trkpt lat="44.42277" lon="6.70644">
        <ele>1509.1</ele>
        <time>2021-09-01T09:57:32Z</time>
      </trkpt>
      <trkpt lat="44.42276" lon="6.70648">
        <ele>1507.6</ele>
        <time>2021-09-01T09:57:36Z</time>
      </trkpt>
      <trkpt lat="44.42273" lon="6.70651">
        <ele>1507.4</ele>
        <time>2021-09-01T09:57:40Z</time>
      </trkpt>
      <trkpt lat="44.42272" lon="6.70652">
        <ele>1507.3</ele>
        <time>2021-09-01T09:57:44Z</time>
      </trkpt>
      <trkpt lat="44.42269" lon="6.70653">
        <ele>1508</ele>
        <time>2021-09-01T09:57:48Z</time>
      </trkpt>
      <trkpt lat="44.42266" lon="6.70655">
        <ele>1508.3</ele>
        <time>2021-09-01T09:57:52Z</time>
      </trkpt>
      <trkpt lat="44.42264" lon="6.70656">
        <ele>1508.6</ele>
        <time>2021-09-01T09:57:56Z</time>
      </trkpt>
      <trkpt lat="44.42263" lon="6.70657">
        <ele>1508.5</ele>
        <time>2021-09-01T09:58:00Z</time>
      </trkpt>
      <trkpt lat="44.4226" lon="6.70662">
        <ele>1507.3</ele>
        <time>2021-09-01T09:58:04Z</time>
      </trkpt>
      <trkpt lat="44.42258" lon="6.70664">
        <ele>1507.2</ele>
        <time>2021-09-01T09:58:08Z</time>
      </trkpt>
      <trkpt lat="44.42257" lon="6.70668">
        <ele>1505.8</ele>
        <time>2021-09-01T09:58:12Z</time>
      </trkpt>
      <trkpt lat="44.42256" lon="6.70671">
        <ele>1505</ele>
        <time>2021-09-01T09:58:16Z</time>
      </trkpt>
      <trkpt lat="44.42255" lon="6.70676">
        <ele>1503.3</ele>
        <time>2021-09-01T09:58:20Z</time>
      </trkpt>
      <trkpt lat="44.42255" lon="6.70678">
        <ele>1502.5</ele>
        <time>2021-09-01T09:58:28Z</time>
      </trkpt>
      <trkpt lat="44.42253" lon="6.7068">
        <ele>1502.3</ele>
        <time>2021-09-01T09:58:32Z</time>
      </trkpt>
      <trkpt lat="44.42251" lon="6.70683">
        <ele>1501.6</ele>
        <time>2021-09-01T09:58:40Z</time>
      </trkpt>
      <trkpt lat="44.42249" lon="6.70688">
        <ele>1500.2</ele>
        <time>2021-09-01T09:58:44Z</time>
      </trkpt>
      <trkpt lat="44.42246" lon="6.70693">
        <ele>1499.4</ele>
        <time>2021-09-01T09:58:48Z</time>
      </trkpt>
      <trkpt lat="44.42243" lon="6.707">
        <ele>1497.8</ele>
        <time>2021-09-01T09:58:52Z</time>
      </trkpt>
      <trkpt lat="44.42241" lon="6.70705">
        <ele>1496.5</ele>
        <time>2021-09-01T09:58:56Z</time>
      </trkpt>
      <trkpt lat="44.42242" lon="6.70709">
        <ele>1494.3</ele>
        <time>2021-09-01T09:59:28Z</time>
      </trkpt>
      <trkpt lat="44.42244" lon="6.70706">
        <ele>1494.7</ele>
        <time>2021-09-01T09:59:32Z</time>
      </trkpt>
      <trkpt lat="44.42248" lon="6.70702">
        <ele>1494.6</ele>
        <time>2021-09-01T09:59:36Z</time>
      </trkpt>
      <trkpt lat="44.42252" lon="6.70696">
        <ele>1495.9</ele>
        <time>2021-09-01T09:59:40Z</time>
      </trkpt>
      <trkpt lat="44.42252" lon="6.70699">
        <ele>1494.6</ele>
        <time>2021-09-01T09:59:48Z</time>
      </trkpt>
      <trkpt lat="44.42251" lon="6.70705">
        <ele>1492.3</ele>
        <time>2021-09-01T09:59:56Z</time>
      </trkpt>
      <trkpt lat="44.42246" lon="6.70709">
        <ele>1492.5</ele>
        <time>2021-09-01T10:00:00Z</time>
      </trkpt>
      <trkpt lat="44.42244" lon="6.70726">
        <ele>1486.1</ele>
        <time>2021-09-01T10:00:04Z</time>
      </trkpt>
      <trkpt lat="44.42248" lon="6.70751">
        <ele>1473.6</ele>
        <time>2021-09-01T10:00:08Z</time>
      </trkpt>
      <trkpt lat="44.42246" lon="6.70771">
        <ele>1468.6</ele>
        <time>2021-09-01T10:00:12Z</time>
      </trkpt>
      <trkpt lat="44.42236" lon="6.70785">
        <ele>1468.4</ele>
        <time>2021-09-01T10:00:16Z</time>
      </trkpt>
      <trkpt lat="44.42232" lon="6.70799">
        <ele>1465.6</ele>
        <time>2021-09-01T10:00:20Z</time>
      </trkpt>
      <trkpt lat="44.42223" lon="6.7082">
        <ele>1462.1</ele>
        <time>2021-09-01T10:00:24Z</time>
      </trkpt>
      <trkpt lat="44.42215" lon="6.70837">
        <ele>1459.6</ele>
        <time>2021-09-01T10:00:28Z</time>
      </trkpt>
      <trkpt lat="44.42208" lon="6.70852">
        <ele>1458.1</ele>
        <time>2021-09-01T10:00:32Z</time>
      </trkpt>
      <trkpt lat="44.42204" lon="6.70858">
        <ele>1457.3</ele>
        <time>2021-09-01T10:00:36Z</time>
      </trkpt>
      <trkpt lat="44.42209" lon="6.7086">
        <ele>1456</ele>
        <time>2021-09-01T10:00:40Z</time>
      </trkpt>
      <trkpt lat="44.42216" lon="6.70858">
        <ele>1455.2</ele>
        <time>2021-09-01T10:00:44Z</time>
      </trkpt>
      <trkpt lat="44.42225" lon="6.70853">
        <ele>1454.4</ele>
        <time>2021-09-01T10:00:48Z</time>
      </trkpt>
      <trkpt lat="44.42229" lon="6.70855">
        <ele>1453.3</ele>
        <time>2021-09-01T10:00:56Z</time>
      </trkpt>
      <trkpt lat="44.42233" lon="6.70858">
        <ele>1452.3</ele>
        <time>2021-09-01T10:01:00Z</time>
      </trkpt>
      <trkpt lat="44.42232" lon="6.7086">
        <ele>1452.2</ele>
        <time>2021-09-01T10:01:04Z</time>
      </trkpt>
      <trkpt lat="44.42222" lon="6.70868">
        <ele>1452.6</ele>
        <time>2021-09-01T10:01:08Z</time>
      </trkpt>
      <trkpt lat="44.42213" lon="6.70874">
        <ele>1452.4</ele>
        <time>2021-09-01T10:01:12Z</time>
      </trkpt>
      <trkpt lat="44.42206" lon="6.70885">
        <ele>1450.1</ele>
        <time>2021-09-01T10:01:16Z</time>
      </trkpt>
      <trkpt lat="44.42206" lon="6.70892">
        <ele>1448.3</ele>
        <time>2021-09-01T10:01:24Z</time>
      </trkpt>
      <trkpt lat="44.42206" lon="6.70897">
        <ele>1447.1</ele>
        <time>2021-09-01T10:01:28Z</time>
      </trkpt>
      <trkpt lat="44.42204" lon="6.70901">
        <ele>1445.9</ele>
        <time>2021-09-01T10:01:32Z</time>
      </trkpt>
      <trkpt lat="44.42203" lon="6.70904">
        <ele>1445</ele>
        <time>2021-09-01T10:01:36Z</time>
      </trkpt>
      <trkpt lat="44.422" lon="6.70909">
        <ele>1443.2</ele>
        <time>2021-09-01T10:01:40Z</time>
      </trkpt>
      <trkpt lat="44.42198" lon="6.7091">
        <ele>1442.7</ele>
        <time>2021-09-01T10:01:44Z</time>
      </trkpt>
      <trkpt lat="44.42199" lon="6.70912">
        <ele>1442.2</ele>
        <time>2021-09-01T10:01:48Z</time>
      </trkpt>
      <trkpt lat="44.42198" lon="6.70916">
        <ele>1440.8</ele>
        <time>2021-09-01T10:01:56Z</time>
      </trkpt>
      <trkpt lat="44.42201" lon="6.70919">
        <ele>1441.2</ele>
        <time>2021-09-01T10:02:00Z</time>
      </trkpt>
      <trkpt lat="44.42203" lon="6.70918">
        <ele>1441.5</ele>
        <time>2021-09-01T10:02:04Z</time>
      </trkpt>
      <trkpt lat="44.42205" lon="6.70918">
        <ele>1441.9</ele>
        <time>2021-09-01T10:02:08Z</time>
      </trkpt>
      <trkpt lat="44.42206" lon="6.70923">
        <ele>1442.2</ele>
        <time>2021-09-01T10:02:16Z</time>
      </trkpt>
      <trkpt lat="44.42205" lon="6.70926">
        <ele>1442</ele>
        <time>2021-09-01T10:02:20Z</time>
      </trkpt>
      <trkpt lat="44.42204" lon="6.70929">
        <ele>1441.8</ele>
        <time>2021-09-01T10:02:24Z</time>
      </trkpt>
      <trkpt lat="44.42202" lon="6.70932">
        <ele>1441.3</ele>
        <time>2021-09-01T10:02:28Z</time>
      </trkpt>
      <trkpt lat="44.42195" lon="6.70936">
        <ele>1439.5</ele>
        <time>2021-09-01T10:02:32Z</time>
      </trkpt>
      <trkpt lat="44.42182" lon="6.70948">
        <ele>1435.2</ele>
        <time>2021-09-01T10:02:36Z</time>
      </trkpt>
      <trkpt lat="44.42173" lon="6.70962">
        <ele>1430.8</ele>
        <time>2021-09-01T10:02:40Z</time>
      </trkpt>
      <trkpt lat="44.42171" lon="6.7097">
        <ele>1429</ele>
        <time>2021-09-01T10:02:44Z</time>
      </trkpt>
      <trkpt lat="44.4217" lon="6.70967">
        <ele>1429</ele>
        <time>2021-09-01T10:02:48Z</time>
      </trkpt>
      <trkpt lat="44.42166" lon="6.70964">
        <ele>1428.3</ele>
        <time>2021-09-01T10:02:52Z</time>
      </trkpt>
      <trkpt lat="44.42164" lon="6.7098">
        <ele>1426.2</ele>
        <time>2021-09-01T10:02:56Z</time>
      </trkpt>
      <trkpt lat="44.42163" lon="6.70993">
        <ele>1424.2</ele>
        <time>2021-09-01T10:03:00Z</time>
      </trkpt>
      <trkpt lat="44.42161" lon="6.70995">
        <ele>1424</ele>
        <time>2021-09-01T10:03:04Z</time>
      </trkpt>
      <trkpt lat="44.42159" lon="6.70996">
        <ele>1424</ele>
        <time>2021-09-01T10:03:08Z</time>
      </trkpt>
      <trkpt lat="44.42155" lon="6.70999">
        <ele>1423.6</ele>
        <time>2021-09-01T10:03:12Z</time>
      </trkpt>
      <trkpt lat="44.42151" lon="6.71001">
        <ele>1423.6</ele>
        <time>2021-09-01T10:03:16Z</time>
      </trkpt>
      <trkpt lat="44.42147" lon="6.71002">
        <ele>1423.7</ele>
        <time>2021-09-01T10:03:20Z</time>
      </trkpt>
      <trkpt lat="44.42144" lon="6.71003">
        <ele>1423.8</ele>
        <time>2021-09-01T10:03:24Z</time>
      </trkpt>
      <trkpt lat="44.42143" lon="6.71003">
        <ele>1423.8</ele>
        <time>2021-09-01T10:03:28Z</time>
      </trkpt>
      <trkpt lat="44.42141" lon="6.71007">
        <ele>1423.8</ele>
        <time>2021-09-01T10:03:32Z</time>
      </trkpt>
      <trkpt lat="44.42138" lon="6.71011">
        <ele>1423.7</ele>
        <time>2021-09-01T10:03:36Z</time>
      </trkpt>
      <trkpt lat="44.42137" lon="6.71015">
        <ele>1423.6</ele>
        <time>2021-09-01T10:03:40Z</time>
      </trkpt>
      <trkpt lat="44.42136" lon="6.7102">
        <ele>1423.4</ele>
        <time>2021-09-01T10:03:44Z</time>
      </trkpt>
      <trkpt lat="44.42135" lon="6.71023">
        <ele>1423.2</ele>
        <time>2021-09-01T10:03:56Z</time>
      </trkpt>
      <trkpt lat="44.42131" lon="6.71025">
        <ele>1422.8</ele>
        <time>2021-09-01T10:04:00Z</time>
      </trkpt>
      <trkpt lat="44.42125" lon="6.71034">
        <ele>1421.6</ele>
        <time>2021-09-01T10:04:04Z</time>
      </trkpt>
      <trkpt lat="44.42112" lon="6.71046">
        <ele>1418.5</ele>
        <time>2021-09-01T10:04:08Z</time>
      </trkpt>
      <trkpt lat="44.42094" lon="6.71057">
        <ele>1413.2</ele>
        <time>2021-09-01T10:04:12Z</time>
      </trkpt>
      <trkpt lat="44.42074" lon="6.71074">
        <ele>1407.3</ele>
        <time>2021-09-01T10:04:16Z</time>
      </trkpt>
      <trkpt lat="44.42048" lon="6.71092">
        <ele>1406.9</ele>
        <time>2021-09-01T10:04:20Z</time>
      </trkpt>
      <trkpt lat="44.42022" lon="6.7112">
        <ele>1404.1</ele>
        <time>2021-09-01T10:04:24Z</time>
      </trkpt>
      <trkpt lat="44.41993" lon="6.71137">
        <ele>1398</ele>
        <time>2021-09-01T10:04:28Z</time>
      </trkpt>
      <trkpt lat="44.41971" lon="6.7115">
        <ele>1396</ele>
        <time>2021-09-01T10:04:32Z</time>
      </trkpt>
      <trkpt lat="44.41943" lon="6.71163">
        <ele>1393.8</ele>
        <time>2021-09-01T10:04:36Z</time>
      </trkpt>
      <trkpt lat="44.4191" lon="6.71185">
        <ele>1390.4</ele>
        <time>2021-09-01T10:04:40Z</time>
      </trkpt>
      <trkpt lat="44.41888" lon="6.71203">
        <ele>1388.5</ele>
        <time>2021-09-01T10:04:44Z</time>
      </trkpt>
      <trkpt lat="44.41876" lon="6.71215">
        <ele>1386.6</ele>
        <time>2021-09-01T10:04:48Z</time>
      </trkpt>
      <trkpt lat="44.41859" lon="6.71219">
        <ele>1387.3</ele>
        <time>2021-09-01T10:04:52Z</time>
      </trkpt>
      <trkpt lat="44.41845" lon="6.71222">
        <ele>1387.9</ele>
        <time>2021-09-01T10:04:56Z</time>
      </trkpt>
      <trkpt lat="44.41832" lon="6.7122">
        <ele>1389.7</ele>
        <time>2021-09-01T10:05:00Z</time>
      </trkpt>
      <trkpt lat="44.41817" lon="6.7121">
        <ele>1392.9</ele>
        <time>2021-09-01T10:05:04Z</time>
      </trkpt>
      <trkpt lat="44.41806" lon="6.71199">
        <ele>1396.3</ele>
        <time>2021-09-01T10:05:08Z</time>
      </trkpt>
      <trkpt lat="44.41796" lon="6.71198">
        <ele>1396.8</ele>
        <time>2021-09-01T10:05:12Z</time>
      </trkpt>
      <trkpt lat="44.41785" lon="6.71203">
        <ele>1395.6</ele>
        <time>2021-09-01T10:05:16Z</time>
      </trkpt>
      <trkpt lat="44.4177" lon="6.71207">
        <ele>1394.9</ele>
        <time>2021-09-01T10:05:20Z</time>
      </trkpt>
      <trkpt lat="44.41754" lon="6.71214">
        <ele>1393.4</ele>
        <time>2021-09-01T10:05:24Z</time>
      </trkpt>
      <trkpt lat="44.41742" lon="6.71226">
        <ele>1389.9</ele>
        <time>2021-09-01T10:05:28Z</time>
      </trkpt>
      <trkpt lat="44.41729" lon="6.7124">
        <ele>1385.4</ele>
        <time>2021-09-01T10:05:32Z</time>
      </trkpt>
      <trkpt lat="44.41718" lon="6.71261">
        <ele>1380</ele>
        <time>2021-09-01T10:05:36Z</time>
      </trkpt>
      <trkpt lat="44.417" lon="6.71282">
        <ele>1374.7</ele>
        <time>2021-09-01T10:05:40Z</time>
      </trkpt>
      <trkpt lat="44.41681" lon="6.71289">
        <ele>1371.8</ele>
        <time>2021-09-01T10:05:44Z</time>
      </trkpt>
      <trkpt lat="44.41674" lon="6.71309">
        <ele>1366.9</ele>
        <time>2021-09-01T10:05:48Z</time>
      </trkpt>
      <trkpt lat="44.41682" lon="6.71329">
        <ele>1363.6</ele>
        <time>2021-09-01T10:05:52Z</time>
      </trkpt>
      <trkpt lat="44.41696" lon="6.7134">
        <ele>1362.9</ele>
        <time>2021-09-01T10:05:56Z</time>
      </trkpt>
      <trkpt lat="44.41712" lon="6.71344">
        <ele>1364</ele>
        <time>2021-09-01T10:06:00Z</time>
      </trkpt>
      <trkpt lat="44.41727" lon="6.71345">
        <ele>1365.5</ele>
        <time>2021-09-01T10:06:04Z</time>
      </trkpt>
      <trkpt lat="44.41743" lon="6.71353">
        <ele>1366.1</ele>
        <time>2021-09-01T10:06:08Z</time>
      </trkpt>
      <trkpt lat="44.41758" lon="6.71357">
        <ele>1366.4</ele>
        <time>2021-09-01T10:06:12Z</time>
      </trkpt>
      <trkpt lat="44.41781" lon="6.71364">
        <ele>1365.5</ele>
        <time>2021-09-01T10:06:16Z</time>
      </trkpt>
      <trkpt lat="44.41799" lon="6.71373">
        <ele>1364.1</ele>
        <time>2021-09-01T10:06:20Z</time>
      </trkpt>
      <trkpt lat="44.41791" lon="6.71385">
        <ele>1362</ele>
        <time>2021-09-01T10:06:24Z</time>
      </trkpt>
      <trkpt lat="44.41772" lon="6.71388">
        <ele>1361.5</ele>
        <time>2021-09-01T10:06:28Z</time>
      </trkpt>
      <trkpt lat="44.41761" lon="6.71402">
        <ele>1359.2</ele>
        <time>2021-09-01T10:06:32Z</time>
      </trkpt>
      <trkpt lat="44.41752" lon="6.71408">
        <ele>1358.3</ele>
        <time>2021-09-01T10:06:36Z</time>
      </trkpt>
      <trkpt lat="44.41742" lon="6.71414">
        <ele>1356.2</ele>
        <time>2021-09-01T10:06:40Z</time>
      </trkpt>
      <trkpt lat="44.41741" lon="6.71414">
        <ele>1356</ele>
        <time>2021-09-01T10:07:36Z</time>
      </trkpt>
      <trkpt lat="44.41731" lon="6.71421">
        <ele>1353.2</ele>
        <time>2021-09-01T10:07:40Z</time>
      </trkpt>
      <trkpt lat="44.41713" lon="6.71428">
        <ele>1349.1</ele>
        <time>2021-09-01T10:07:44Z</time>
      </trkpt>
      <trkpt lat="44.41691" lon="6.71432">
        <ele>1344.9</ele>
        <time>2021-09-01T10:07:48Z</time>
      </trkpt>
      <trkpt lat="44.41669" lon="6.71426">
        <ele>1342.6</ele>
        <time>2021-09-01T10:07:52Z</time>
      </trkpt>
      <trkpt lat="44.41644" lon="6.7142">
        <ele>1338</ele>
        <time>2021-09-01T10:07:56Z</time>
      </trkpt>
      <trkpt lat="44.4162" lon="6.71406">
        <ele>1335</ele>
        <time>2021-09-01T10:08:00Z</time>
      </trkpt>
      <trkpt lat="44.41612" lon="6.71406">
        <ele>1333.1</ele>
        <time>2021-09-01T10:08:04Z</time>
      </trkpt>
      <trkpt lat="44.41606" lon="6.71419">
        <ele>1329.1</ele>
        <time>2021-09-01T10:08:08Z</time>
      </trkpt>
      <trkpt lat="44.41609" lon="6.71435">
        <ele>1327.2</ele>
        <time>2021-09-01T10:08:12Z</time>
      </trkpt>
      <trkpt lat="44.41612" lon="6.71458">
        <ele>1324.2</ele>
        <time>2021-09-01T10:08:16Z</time>
      </trkpt>
      <trkpt lat="44.41609" lon="6.71493">
        <ele>1318</ele>
        <time>2021-09-01T10:08:20Z</time>
      </trkpt>
      <trkpt lat="44.41614" lon="6.71531">
        <ele>1317</ele>
        <time>2021-09-01T10:08:24Z</time>
      </trkpt>
      <trkpt lat="44.41608" lon="6.71563">
        <ele>1315.6</ele>
        <time>2021-09-01T10:08:28Z</time>
      </trkpt>
      <trkpt lat="44.41591" lon="6.71577">
        <ele>1314.3</ele>
        <time>2021-09-01T10:08:32Z</time>
      </trkpt>
      <trkpt lat="44.41571" lon="6.71593">
        <ele>1312.7</ele>
        <time>2021-09-01T10:08:36Z</time>
      </trkpt>
      <trkpt lat="44.41555" lon="6.71608">
        <ele>1311</ele>
        <time>2021-09-01T10:08:40Z</time>
      </trkpt>
      <trkpt lat="44.41543" lon="6.71618">
        <ele>1309.7</ele>
        <time>2021-09-01T10:08:44Z</time>
      </trkpt>
      <trkpt lat="44.41541" lon="6.7162">
        <ele>1309.5</ele>
        <time>2021-09-01T10:08:48Z</time>
      </trkpt>
      <trkpt lat="44.41539" lon="6.71626">
        <ele>1309.2</ele>
        <time>2021-09-01T10:08:52Z</time>
      </trkpt>
      <trkpt lat="44.4154" lon="6.71637">
        <ele>1309.2</ele>
        <time>2021-09-01T10:08:56Z</time>
      </trkpt>
      <trkpt lat="44.41537" lon="6.71636">
        <ele>1308.9</ele>
        <time>2021-09-01T10:09:00Z</time>
      </trkpt>
      <trkpt lat="44.41536" lon="6.71626">
        <ele>1308.9</ele>
        <time>2021-09-01T10:09:04Z</time>
      </trkpt>
      <trkpt lat="44.41536" lon="6.71619">
        <ele>1309</ele>
        <time>2021-09-01T10:09:08Z</time>
      </trkpt>
      <trkpt lat="44.4153" lon="6.71622">
        <ele>1308.4</ele>
        <time>2021-09-01T10:09:12Z</time>
      </trkpt>
      <trkpt lat="44.41519" lon="6.71625">
        <ele>1307.3</ele>
        <time>2021-09-01T10:09:16Z</time>
      </trkpt>
      <trkpt lat="44.41508" lon="6.71637">
        <ele>1306.1</ele>
        <time>2021-09-01T10:09:20Z</time>
      </trkpt>
      <trkpt lat="44.41486" lon="6.71647">
        <ele>1303.6</ele>
        <time>2021-09-01T10:09:24Z</time>
      </trkpt>
      <trkpt lat="44.41464" lon="6.71658">
        <ele>1300.8</ele>
        <time>2021-09-01T10:09:28Z</time>
      </trkpt>
      <trkpt lat="44.41437" lon="6.71678">
        <ele>1296.7</ele>
        <time>2021-09-01T10:09:32Z</time>
      </trkpt>
      <trkpt lat="44.41417" lon="6.71707">
        <ele>1292.6</ele>
        <time>2021-09-01T10:09:36Z</time>
      </trkpt>
      <trkpt lat="44.41394" lon="6.71728">
        <ele>1289.2</ele>
        <time>2021-09-01T10:09:40Z</time>
      </trkpt>
      <trkpt lat="44.41378" lon="6.71745">
        <ele>1287</ele>
        <time>2021-09-01T10:09:44Z</time>
      </trkpt>
      <trkpt lat="44.41385" lon="6.71763">
        <ele>1286.3</ele>
        <time>2021-09-01T10:09:48Z</time>
      </trkpt>
      <trkpt lat="44.41401" lon="6.71772">
        <ele>1287.1</ele>
        <time>2021-09-01T10:09:52Z</time>
      </trkpt>
      <trkpt lat="44.41416" lon="6.71778">
        <ele>1287.9</ele>
        <time>2021-09-01T10:09:56Z</time>
      </trkpt>
      <trkpt lat="44.41433" lon="6.71789">
        <ele>1288.7</ele>
        <time>2021-09-01T10:10:00Z</time>
      </trkpt>
      <trkpt lat="44.41449" lon="6.718">
        <ele>1289.3</ele>
        <time>2021-09-01T10:10:04Z</time>
      </trkpt>
      <trkpt lat="44.41464" lon="6.71816">
        <ele>1289.3</ele>
        <time>2021-09-01T10:10:08Z</time>
      </trkpt>
      <trkpt lat="44.41475" lon="6.7183">
        <ele>1289.2</ele>
        <time>2021-09-01T10:10:12Z</time>
      </trkpt>
      <trkpt lat="44.41483" lon="6.71845">
        <ele>1289</ele>
        <time>2021-09-01T10:10:16Z</time>
      </trkpt>
      <trkpt lat="44.41483" lon="6.71866">
        <ele>1288.1</ele>
        <time>2021-09-01T10:10:20Z</time>
      </trkpt>
      <trkpt lat="44.41472" lon="6.71894">
        <ele>1286</ele>
        <time>2021-09-01T10:10:24Z</time>
      </trkpt>
      <trkpt lat="44.41457" lon="6.71925">
        <ele>1283.3</ele>
        <time>2021-09-01T10:10:28Z</time>
      </trkpt>
      <trkpt lat="44.4144" lon="6.71957">
        <ele>1279.9</ele>
        <time>2021-09-01T10:10:32Z</time>
      </trkpt>
      <trkpt lat="44.41422" lon="6.71991">
        <ele>1276.8</ele>
        <time>2021-09-01T10:10:36Z</time>
      </trkpt>
      <trkpt lat="44.41409" lon="6.72029">
        <ele>1272.9</ele>
        <time>2021-09-01T10:10:40Z</time>
      </trkpt>
      <trkpt lat="44.41405" lon="6.72062">
        <ele>1270</ele>
        <time>2021-09-01T10:10:44Z</time>
      </trkpt>
      <trkpt lat="44.41415" lon="6.72091">
        <ele>1267.6</ele>
        <time>2021-09-01T10:10:48Z</time>
      </trkpt>
      <trkpt lat="44.41426" lon="6.72128">
        <ele>1265.3</ele>
        <time>2021-09-01T10:10:52Z</time>
      </trkpt>
      <trkpt lat="44.41436" lon="6.72164">
        <ele>1263.2</ele>
        <time>2021-09-01T10:10:56Z</time>
      </trkpt>
      <trkpt lat="44.41456" lon="6.72199">
        <ele>1260.3</ele>
        <time>2021-09-01T10:11:00Z</time>
      </trkpt>
      <trkpt lat="44.41484" lon="6.72222">
        <ele>1258.4</ele>
        <time>2021-09-01T10:11:04Z</time>
      </trkpt>
      <trkpt lat="44.41513" lon="6.72233">
        <ele>1257.9</ele>
        <time>2021-09-01T10:11:08Z</time>
      </trkpt>
      <trkpt lat="44.41537" lon="6.72257">
        <ele>1256.7</ele>
        <time>2021-09-01T10:11:12Z</time>
      </trkpt>
      <trkpt lat="44.41564" lon="6.72281">
        <ele>1255.4</ele>
        <time>2021-09-01T10:11:16Z</time>
      </trkpt>
      <trkpt lat="44.41583" lon="6.72317">
        <ele>1252.6</ele>
        <time>2021-09-01T10:11:20Z</time>
      </trkpt>
      <trkpt lat="44.41604" lon="6.72346">
        <ele>1253.4</ele>
        <time>2021-09-01T10:11:24Z</time>
      </trkpt>
      <trkpt lat="44.41622" lon="6.72373">
        <ele>1253.8</ele>
        <time>2021-09-01T10:11:28Z</time>
      </trkpt>
      <trkpt lat="44.41638" lon="6.72391">
        <ele>1254</ele>
        <time>2021-09-01T10:11:32Z</time>
      </trkpt>
      <trkpt lat="44.41653" lon="6.72414">
        <ele>1253.1</ele>
        <time>2021-09-01T10:11:36Z</time>
      </trkpt>
      <trkpt lat="44.41668" lon="6.72438">
        <ele>1251.6</ele>
        <time>2021-09-01T10:11:40Z</time>
      </trkpt>
      <trkpt lat="44.41679" lon="6.72469">
        <ele>1249.1</ele>
        <time>2021-09-01T10:11:44Z</time>
      </trkpt>
      <trkpt lat="44.41685" lon="6.725">
        <ele>1245.8</ele>
        <time>2021-09-01T10:11:48Z</time>
      </trkpt>
      <trkpt lat="44.4168" lon="6.7254">
        <ele>1241.5</ele>
        <time>2021-09-01T10:11:52Z</time>
      </trkpt>
      <trkpt lat="44.41682" lon="6.72583">
        <ele>1237.7</ele>
        <time>2021-09-01T10:11:56Z</time>
      </trkpt>
      <trkpt lat="44.41691" lon="6.72605">
        <ele>1237.2</ele>
        <time>2021-09-01T10:12:00Z</time>
      </trkpt>
      <trkpt lat="44.41707" lon="6.7261">
        <ele>1238.4</ele>
        <time>2021-09-01T10:12:04Z</time>
      </trkpt>
      <trkpt lat="44.41719" lon="6.72607">
        <ele>1239.9</ele>
        <time>2021-09-01T10:12:08Z</time>
      </trkpt>
      <trkpt lat="44.41732" lon="6.72606">
        <ele>1241.3</ele>
        <time>2021-09-01T10:12:12Z</time>
      </trkpt>
      <trkpt lat="44.41745" lon="6.72606">
        <ele>1242.6</ele>
        <time>2021-09-01T10:12:16Z</time>
      </trkpt>
      <trkpt lat="44.41756" lon="6.72611">
        <ele>1244.6</ele>
        <time>2021-09-01T10:12:20Z</time>
      </trkpt>
      <trkpt lat="44.41765" lon="6.72618">
        <ele>1246.9</ele>
        <time>2021-09-01T10:12:24Z</time>
      </trkpt>
      <trkpt lat="44.41771" lon="6.7263">
        <ele>1247.5</ele>
        <time>2021-09-01T10:12:28Z</time>
      </trkpt>
      <trkpt lat="44.41777" lon="6.72644">
        <ele>1247.7</ele>
        <time>2021-09-01T10:12:32Z</time>
      </trkpt>
      <trkpt lat="44.41779" lon="6.72658">
        <ele>1246.7</ele>
        <time>2021-09-01T10:12:36Z</time>
      </trkpt>
      <trkpt lat="44.41777" lon="6.72672">
        <ele>1244.6</ele>
        <time>2021-09-01T10:12:40Z</time>
      </trkpt>
      <trkpt lat="44.41778" lon="6.72688">
        <ele>1243.1</ele>
        <time>2021-09-01T10:12:44Z</time>
      </trkpt>
      <trkpt lat="44.41781" lon="6.72707">
        <ele>1241.8</ele>
        <time>2021-09-01T10:12:48Z</time>
      </trkpt>
      <trkpt lat="44.41784" lon="6.72727">
        <ele>1240.5</ele>
        <time>2021-09-01T10:12:52Z</time>
      </trkpt>
      <trkpt lat="44.41785" lon="6.72748">
        <ele>1238.5</ele>
        <time>2021-09-01T10:12:56Z</time>
      </trkpt>
      <trkpt lat="44.41788" lon="6.72767">
        <ele>1238</ele>
        <time>2021-09-01T10:13:00Z</time>
      </trkpt>
      <trkpt lat="44.41795" lon="6.72784">
        <ele>1238.9</ele>
        <time>2021-09-01T10:13:04Z</time>
      </trkpt>
      <trkpt lat="44.41802" lon="6.72797">
        <ele>1240</ele>
        <time>2021-09-01T10:13:08Z</time>
      </trkpt>
      <trkpt lat="44.4181" lon="6.72811">
        <ele>1241.5</ele>
        <time>2021-09-01T10:13:12Z</time>
      </trkpt>
      <trkpt lat="44.41819" lon="6.7282">
        <ele>1243.6</ele>
        <time>2021-09-01T10:13:16Z</time>
      </trkpt>
      <trkpt lat="44.4183" lon="6.7283">
        <ele>1246.2</ele>
        <time>2021-09-01T10:13:20Z</time>
      </trkpt>
      <trkpt lat="44.41842" lon="6.72843">
        <ele>1247.8</ele>
        <time>2021-09-01T10:13:24Z</time>
      </trkpt>
      <trkpt lat="44.41854" lon="6.72854">
        <ele>1249.2</ele>
        <time>2021-09-01T10:13:28Z</time>
      </trkpt>
      <trkpt lat="44.41865" lon="6.72871">
        <ele>1249.3</ele>
        <time>2021-09-01T10:13:32Z</time>
      </trkpt>
      <trkpt lat="44.41873" lon="6.72891">
        <ele>1248</ele>
        <time>2021-09-01T10:13:36Z</time>
      </trkpt>
      <trkpt lat="44.41882" lon="6.72903">
        <ele>1248.5</ele>
        <time>2021-09-01T10:13:40Z</time>
      </trkpt>
      <trkpt lat="44.41892" lon="6.72914">
        <ele>1249.4</ele>
        <time>2021-09-01T10:13:44Z</time>
      </trkpt>
      <trkpt lat="44.41907" lon="6.72924">
        <ele>1251.7</ele>
        <time>2021-09-01T10:13:48Z</time>
      </trkpt>
      <trkpt lat="44.41922" lon="6.72937">
        <ele>1253.3</ele>
        <time>2021-09-01T10:13:52Z</time>
      </trkpt>
      <trkpt lat="44.41936" lon="6.72964">
        <ele>1252.5</ele>
        <time>2021-09-01T10:13:56Z</time>
      </trkpt>
      <trkpt lat="44.41944" lon="6.72987">
        <ele>1250.9</ele>
        <time>2021-09-01T10:14:00Z</time>
      </trkpt>
      <trkpt lat="44.41958" lon="6.72994">
        <ele>1254.9</ele>
        <time>2021-09-01T10:14:04Z</time>
      </trkpt>
      <trkpt lat="44.41967" lon="6.73005">
        <ele>1256.2</ele>
        <time>2021-09-01T10:14:08Z</time>
      </trkpt>
      <trkpt lat="44.4198" lon="6.73015">
        <ele>1258.8</ele>
        <time>2021-09-01T10:14:12Z</time>
      </trkpt>
      <trkpt lat="44.41991" lon="6.73037">
        <ele>1257.8</ele>
        <time>2021-09-01T10:14:16Z</time>
      </trkpt>
      <trkpt lat="44.42" lon="6.7306">
        <ele>1255.6</ele>
        <time>2021-09-01T10:14:20Z</time>
      </trkpt>
      <trkpt lat="44.42011" lon="6.73084">
        <ele>1254.8</ele>
        <time>2021-09-01T10:14:24Z</time>
      </trkpt>
      <trkpt lat="44.4202" lon="6.73108">
        <ele>1254.3</ele>
        <time>2021-09-01T10:14:28Z</time>
      </trkpt>
      <trkpt lat="44.4203" lon="6.73128">
        <ele>1255.1</ele>
        <time>2021-09-01T10:14:32Z</time>
      </trkpt>
      <trkpt lat="44.42038" lon="6.73155">
        <ele>1253.9</ele>
        <time>2021-09-01T10:14:36Z</time>
      </trkpt>
      <trkpt lat="44.42045" lon="6.73173">
        <ele>1255</ele>
        <time>2021-09-01T10:14:40Z</time>
      </trkpt>
      <trkpt lat="44.42048" lon="6.73195">
        <ele>1256.3</ele>
        <time>2021-09-01T10:14:44Z</time>
      </trkpt>
      <trkpt lat="44.4204" lon="6.73225">
        <ele>1252.4</ele>
        <time>2021-09-01T10:14:48Z</time>
      </trkpt>
      <trkpt lat="44.42034" lon="6.73245">
        <ele>1249.4</ele>
        <time>2021-09-01T10:14:52Z</time>
      </trkpt>
      <trkpt lat="44.42019" lon="6.73262">
        <ele>1242.4</ele>
        <time>2021-09-01T10:14:56Z</time>
      </trkpt>
      <trkpt lat="44.42006" lon="6.73289">
        <ele>1236.5</ele>
        <time>2021-09-01T10:15:00Z</time>
      </trkpt>
      <trkpt lat="44.41999" lon="6.73321">
        <ele>1233.7</ele>
        <time>2021-09-01T10:15:04Z</time>
      </trkpt>
      <trkpt lat="44.41993" lon="6.73349">
        <ele>1232.1</ele>
        <time>2021-09-01T10:15:08Z</time>
      </trkpt>
      <trkpt lat="44.41984" lon="6.73368">
        <ele>1230</ele>
        <time>2021-09-01T10:15:12Z</time>
      </trkpt>
      <trkpt lat="44.41966" lon="6.73383">
        <ele>1227.2</ele>
        <time>2021-09-01T10:15:16Z</time>
      </trkpt>
      <trkpt lat="44.41961" lon="6.73394">
        <ele>1226.5</ele>
        <time>2021-09-01T10:15:20Z</time>
      </trkpt>
      <trkpt lat="44.41967" lon="6.73408">
        <ele>1227</ele>
        <time>2021-09-01T10:15:24Z</time>
      </trkpt>
      <trkpt lat="44.41971" lon="6.73425">
        <ele>1226.5</ele>
        <time>2021-09-01T10:15:28Z</time>
      </trkpt>
      <trkpt lat="44.41979" lon="6.73443">
        <ele>1225.4</ele>
        <time>2021-09-01T10:15:32Z</time>
      </trkpt>
      <trkpt lat="44.41989" lon="6.73464">
        <ele>1223.8</ele>
        <time>2021-09-01T10:15:36Z</time>
      </trkpt>
      <trkpt lat="44.41995" lon="6.73487">
        <ele>1221.4</ele>
        <time>2021-09-01T10:15:40Z</time>
      </trkpt>
      <trkpt lat="44.42003" lon="6.73509">
        <ele>1220.5</ele>
        <time>2021-09-01T10:15:44Z</time>
      </trkpt>
      <trkpt lat="44.4201" lon="6.73532">
        <ele>1221</ele>
        <time>2021-09-01T10:15:48Z</time>
      </trkpt>
      <trkpt lat="44.42015" lon="6.73555">
        <ele>1220.7</ele>
        <time>2021-09-01T10:15:52Z</time>
      </trkpt>
      <trkpt lat="44.42016" lon="6.73578">
        <ele>1219.8</ele>
        <time>2021-09-01T10:15:56Z</time>
      </trkpt>
      <trkpt lat="44.42017" lon="6.736">
        <ele>1219.6</ele>
        <time>2021-09-01T10:16:00Z</time>
      </trkpt>
      <trkpt lat="44.42022" lon="6.7362">
        <ele>1219.6</ele>
        <time>2021-09-01T10:16:04Z</time>
      </trkpt>
      <trkpt lat="44.42033" lon="6.73634">
        <ele>1219.4</ele>
        <time>2021-09-01T10:16:08Z</time>
      </trkpt>
      <trkpt lat="44.42045" lon="6.73644">
        <ele>1219.3</ele>
        <time>2021-09-01T10:16:12Z</time>
      </trkpt>
      <trkpt lat="44.42058" lon="6.73654">
        <ele>1219.2</ele>
        <time>2021-09-01T10:16:16Z</time>
      </trkpt>
      <trkpt lat="44.42073" lon="6.73661">
        <ele>1219.1</ele>
        <time>2021-09-01T10:16:20Z</time>
      </trkpt>
      <trkpt lat="44.42086" lon="6.73667">
        <ele>1219.1</ele>
        <time>2021-09-01T10:16:24Z</time>
      </trkpt>
      <trkpt lat="44.42096" lon="6.73663">
        <ele>1219.3</ele>
        <time>2021-09-01T10:16:28Z</time>
      </trkpt>
      <trkpt lat="44.42101" lon="6.73649">
        <ele>1219.4</ele>
        <time>2021-09-01T10:16:32Z</time>
      </trkpt>
      <trkpt lat="44.42103" lon="6.73635">
        <ele>1219.5</ele>
        <time>2021-09-01T10:16:36Z</time>
      </trkpt>
    </trkseg>
  </trk>
</gpx>